Observation data for Colorado City on 06/25/2019      Previous  Date  Next       Current Mesonet Observations  Soil Data  Daily Summary Page  Observations in Plain Language
KCO2 250500Z 15006KT 23/15 A2998 RMK A01 T02300154  RH  062%=      5-min Rain = 0
KCO2 250501Z 15007KT 23/16 A2998 RMK A01 T02300155  RH  063%=      5-min Rain = 0
KCO2 250502Z 14008KT 23/16 A2997 RMK A01 T02290155  RH  063%=      5-min Rain = 0
KCO2 250503Z 15008KT 23/16 A2997 RMK A01 T02290155  RH  063%=      5-min Rain = 0
KCO2 250504Z 15009KT 23/16 A2997 RMK A01 T02280156  RH  064%=      5-min Rain = 0
KCO2 250505Z 14008KT 23/16 A2997 RMK A01 T02270156  RH  064%=      5-min Rain = 0
KCO2 250506Z 13008KT 23/16 A2997 RMK A01 T02270157  RH  064%=      5-min Rain = 0
KCO2 250507Z 13009KT 23/16 A2996 RMK A01 T02270157  RH  065%=      5-min Rain = 0
KCO2 250508Z 13009KT 23/16 A2996 RMK A01 T02260157  RH  065%=      5-min Rain = 0
KCO2 250509Z 13009KT 23/16 A2996 RMK A01 T02250157  RH  065%=      5-min Rain = 0
KCO2 250510Z 13010KT 23/16 A2996 RMK A01 T02250157  RH  065%=      5-min Rain = 0
KCO2 250511Z 12010KT 23/16 A2995 RMK A01 T02250157  RH  066%=      5-min Rain = 0
KCO2 250512Z 12010KT 22/16 A2995 RMK A01 T02240157  RH  066%=      5-min Rain = 0
KCO2 250513Z 12011KT 22/16 A2995 RMK A01 T02240156  RH  066%=      5-min Rain = 0
KCO2 250514Z 12011KT 22/16 A2995 RMK A01 T02240156  RH  065%=      5-min Rain = 0
KCO2 250515Z 12010KT 23/16 A2995 RMK A01 T02250156  RH  065%=      5-min Rain = 0
KCO2 250516Z 12011KT 23/16 A2995 RMK A01 T02260156  RH  065%=      5-min Rain = 0
KCO2 250517Z 11010KT 23/16 A2994 RMK A01 T02270157  RH  064%=      5-min Rain = 0
KCO2 250518Z 11010KT 23/16 A2994 RMK A01 T02280157  RH  064%=      5-min Rain = 0
KCO2 250519Z 12011KT 23/16 A2994 RMK A01 T02280157  RH  064%=      5-min Rain = 0
KCO2 250520Z 12011KT 23/16 A2994 RMK A01 T02290158  RH  064%=      5-min Rain = 0
KCO2 250521Z 12010KT 23/16 A2994 RMK A01 T02290158  RH  064%=      5-min Rain = 0
KCO2 250522Z 12010KT 23/16 A2994 RMK A01 T02300158  RH  064%=      5-min Rain = 0
KCO2 250523Z 12010KT 23/16 A2994 RMK A01 T02300159  RH  064%=      5-min Rain = 0
KCO2 250524Z 13010KT 23/16 A2993 RMK A01 T02300159  RH  064%=      5-min Rain = 0
KCO2 250525Z 14009KT 23/16 A2993 RMK A01 T02300159  RH  064%=      5-min Rain = 0
KCO2 250526Z 14008KT 23/16 A2994 RMK A01 T02290159  RH  065%=      5-min Rain = 0
KCO2 250527Z 14009KT 23/16 A2994 RMK A01 T02290159  RH  065%=      5-min Rain = 0
KCO2 250528Z 14008KT 23/16 A2994 RMK A01 T02280159  RH  065%=      5-min Rain = 0
KCO2 250529Z 15008KT 23/16 A2994 RMK A01 T02270159  RH  065%=      5-min Rain = 0
KCO2 250530Z 15007KT 23/16 A2994 RMK A01 T02260159  RH  066%=      5-min Rain = 0
KCO2 250531Z 14007KT 23/16 A2994 RMK A01 T02260159  RH  066%=      5-min Rain = 0
KCO2 250532Z 14006KT 23/16 A2994 RMK A01 T02260159  RH  066%=      5-min Rain = 0
KCO2 250533Z 14007KT 23/16 A2994 RMK A01 T02250159  RH  066%=      5-min Rain = 0
KCO2 250534Z 14006KT 23/16 A2994 RMK A01 T02250159  RH  066%=      5-min Rain = 0
KCO2 250535Z 15007KT 23/16 A2994 RMK A01 T02250159  RH  066%=      5-min Rain = 0
KCO2 250536Z 14008KT 23/16 A2993 RMK A01 T02250159  RH  066%=      5-min Rain = 0
KCO2 250537Z 14007KT 23/16 A2993 RMK A01 T02250159  RH  066%=      5-min Rain = 0
KCO2 250538Z 14007KT 22/16 A2993 RMK A01 T02240159  RH  067%=      5-min Rain = 0
KCO2 250539Z 15008KT 22/16 A2993 RMK A01 T02240159  RH  067%=      5-min Rain = 0
KCO2 250540Z 15008KT 22/16 A2992 RMK A01 T02240159  RH  067%=      5-min Rain = 0
KCO2 250541Z 15008KT 22/16 A2992 RMK A01 T02240159  RH  067%=      5-min Rain = 0
KCO2 250542Z 16008KT 22/16 A2992 RMK A01 T02240159  RH  067%=      5-min Rain = 0
KCO2 250543Z 16007KT 22/16 A2992 RMK A01 T02240160  RH  067%=      5-min Rain = 0
KCO2 250544Z 16008KT 22/16 A2992 RMK A01 T02240160  RH  067%=      5-min Rain = 0
KCO2 250545Z 16008KT 22/16 A2992 RMK A01 T02230160  RH  067%=      5-min Rain = 0
KCO2 250546Z 17008KT 22/16 A2992 RMK A01 T02230160  RH  067%=      5-min Rain = 0
KCO2 250547Z 17009KT 22/16 A2992 RMK A01 T02240160  RH  067%=      5-min Rain = 0
KCO2 250548Z 17008KT 22/16 A2992 RMK A01 T02230160  RH  068%=      5-min Rain = 0
KCO2 250549Z 18009KT 22/16 A2992 RMK A01 T02220160  RH  068%=      5-min Rain = 0
KCO2 250550Z 18009KT 22/16 A2992 RMK A01 T02220161  RH  068%=      5-min Rain = 0
KCO2 250551Z 17008KT 22/16 A2992 RMK A01 T02210161  RH  069%=      5-min Rain = 0
KCO2 250552Z 18008KT 22/16 A2992 RMK A01 T02200161  RH  069%=      5-min Rain = 0
KCO2 250553Z 17007KT 22/16 A2992 RMK A01 T02190161  RH  069%=      5-min Rain = 0
KCO2 250554Z 17007KT 22/16 A2992 RMK A01 T02180161  RH  070%=      5-min Rain = 0
KCO2 250555Z 18008KT 22/16 A2992 RMK A01 T02170161  RH  070%=      5-min Rain = 0
KCO2 250556Z 18007KT 22/16 A2992 RMK A01 T02160161  RH  071%=      5-min Rain = 0
KCO2 250557Z 17008KT 21/16 A2992 RMK A01 T02140161  RH  071%=      5-min Rain = 0
KCO2 250558Z 17009KT 21/16 A2992 RMK A01 T02130161  RH  072%=      5-min Rain = 0
KCO2 250559Z 17010KT 21/16 A2992 RMK A01 T02120161  RH  073%=      5-min Rain = 0
KCO2 250600Z 17009KT 21/16 A2992 RMK A01 T02110161  RH  073%=      5-min Rain = 0
KCO2 250601Z 17009KT 21/16 A2992 RMK A01 T02120161  RH  073%=      5-min Rain = 0
KCO2 250602Z 17007KT 21/16 A2991 RMK A01 T02110161  RH  073%=      5-min Rain = 0
KCO2 250603Z 17007KT 21/16 A2991 RMK A01 T02110161  RH  073%=      5-min Rain = 0
KCO2 250604Z 17009KT 21/16 A2992 RMK A01 T02110161  RH  073%=      5-min Rain = 0
KCO2 250605Z 18009KT 21/16 A2992 RMK A01 T02120161  RH  073%=      5-min Rain = 0
KCO2 250606Z 19008KT 21/16 A2992 RMK A01 T02120161  RH  073%=      5-min Rain = 0
KCO2 250607Z 19007KT 21/16 A2992 RMK A01 T02110161  RH  073%=      5-min Rain = 0
KCO2 250608Z 19007KT 21/16 A2992 RMK A01 T02110162  RH  073%=      5-min Rain = 0
KCO2 250609Z 20006KT 21/16 A2992 RMK A01 T02110162  RH  074%=      5-min Rain = 0
KCO2 250610Z 21005KT 21/16 A2993 RMK A01 T02100162  RH  074%=      5-min Rain = 0
KCO2 250611Z 21007KT 21/16 A2993 RMK A01 T02100163  RH  075%=      5-min Rain = 0
KCO2 250612Z 21006KT 21/16 A2993 RMK A01 T02090163  RH  075%=      5-min Rain = 0
KCO2 250613Z 21006KT 21/16 A2993 RMK A01 T02080164  RH  076%=      5-min Rain = 0
KCO2 250614Z 20005KT 21/16 A2993 RMK A01 T02070164  RH  076%=      5-min Rain = 0
KCO2 250615Z 19004KT 21/16 A2992 RMK A01 T02070164  RH  077%=      5-min Rain = 0
KCO2 250616Z 18003KT 21/17 A2992 RMK A01 T02060165  RH  077%=      5-min Rain = 0
KCO2 250617Z 18004KT 21/17 A2992 RMK A01 T02060165  RH  077%=      5-min Rain = 0
KCO2 250618Z 20005KT 20/16 A2992 RMK A01 T02040164  RH  078%=      5-min Rain = 0
KCO2 250619Z 22006KT 20/17 A2992 RMK A01 T02040165  RH  078%=      5-min Rain = 0
KCO2 250620Z 22006KT 20/17 A2992 RMK A01 T02020165  RH  079%=      5-min Rain = 0
KCO2 250621Z 22006KT 20/17 A2993 RMK A01 T02010165  RH  080%=      5-min Rain = 0
KCO2 250622Z 22007KT 20/17 A2993 RMK A01 T02010165  RH  080%=      5-min Rain = 0
KCO2 250623Z 22006KT 20/17 A2993 RMK A01 T02010166  RH  080%=      5-min Rain = 0
KCO2 250624Z 21007KT 20/17 A2993 RMK A01 T02000166  RH  080%=      5-min Rain = 0
KCO2 250625Z 21007KT 20/17 A2992 RMK A01 T02000166  RH  081%=      5-min Rain = 0
KCO2 250626Z 20007KT 20/17 A2992 RMK A01 T01990165  RH  081%=      5-min Rain = 0
KCO2 250627Z 19007KT 20/17 A2992 RMK A01 T02000165  RH  081%=      5-min Rain = 0
KCO2 250628Z 19007KT 20/17 A2992 RMK A01 T02000165  RH  080%=      5-min Rain = 0
KCO2 250629Z 18008KT 20/17 A2993 RMK A01 T02000165  RH  080%=      5-min Rain = 0
KCO2 250630Z 18008KT 20/16 A2993 RMK A01 T02000164  RH  080%=      5-min Rain = 0
KCO2 250631Z 18007KT 20/16 A2992 RMK A01 T02010164  RH  079%=      5-min Rain = 0
KCO2 250632Z 18007KT 20/17 A2992 RMK A01 T02020165  RH  079%=      5-min Rain = 0
KCO2 250633Z 18007KT 20/17 A2992 RMK A01 T02020165  RH  079%=      5-min Rain = 0
KCO2 250634Z 18008KT 20/17 A2992 RMK A01 T02010165  RH  080%=      5-min Rain = 0
KCO2 250635Z 18008KT 20/17 A2992 RMK A01 T02000165  RH  080%=      5-min Rain = 0
KCO2 250636Z 17008KT 20/16 A2992 RMK A01 T01990164  RH  080%=      5-min Rain = 0
KCO2 250637Z 17008KT 20/16 A2992 RMK A01 T01980164  RH  081%=      5-min Rain = 0
KCO2 250638Z 17008KT 20/16 A2992 RMK A01 T01980164  RH  081%=      5-min Rain = 0
KCO2 250639Z 17008KT 20/16 A2992 RMK A01 T01980164  RH  081%=      5-min Rain = 0
KCO2 250640Z 17008KT 20/16 A2992 RMK A01 T01980164  RH  081%=      5-min Rain = 0
KCO2 250641Z 16009KT 20/16 A2992 RMK A01 T01990164  RH  080%=      5-min Rain = 0
KCO2 250642Z 16008KT 20/16 A2992 RMK A01 T01990164  RH  080%=      5-min Rain = 0
KCO2 250643Z 16008KT 20/16 A2992 RMK A01 T01990164  RH  080%=      5-min Rain = 0
KCO2 250644Z 17007KT 20/16 A2992 RMK A01 T01990164  RH  080%=      5-min Rain = 0
KCO2 250645Z 17007KT 20/16 A2992 RMK A01 T01990164  RH  080%=      5-min Rain = 0
KCO2 250646Z 18008KT 20/16 A2992 RMK A01 T01990164  RH  081%=      5-min Rain = 0
KCO2 250647Z 19008KT 20/16 A2992 RMK A01 T01980164  RH  081%=      5-min Rain = 0
KCO2 250648Z 19007KT 20/17 A2992 RMK A01 T01990165  RH  081%=      5-min Rain = 0
KCO2 250649Z 19007KT 20/16 A2992 RMK A01 T01980164  RH  081%=      5-min Rain = 0
KCO2 250650Z 19007KT 20/16 A2992 RMK A01 T01980164  RH  081%=      5-min Rain = 0
KCO2 250651Z 19007KT 20/16 A2992 RMK A01 T01980164  RH  081%=      5-min Rain = 0
KCO2 250652Z 18006KT 20/16 A2992 RMK A01 T01980164  RH  081%=      5-min Rain = 0
KCO2 250653Z 18006KT 20/16 A2992 RMK A01 T01980164  RH  081%=      5-min Rain = 0
KCO2 250654Z 18006KT 20/16 A2992 RMK A01 T01970164  RH  081%=      5-min Rain = 0
KCO2 250655Z 19006KT 20/16 A2992 RMK A01 T01970164  RH  081%=      5-min Rain = 0
KCO2 250656Z 19007KT 20/16 A2992 RMK A01 T01960164  RH  082%=      5-min Rain = 0
KCO2 250657Z 19006KT 20/16 A2992 RMK A01 T01960164  RH  082%=      5-min Rain = 0
KCO2 250658Z 18007KT 20/16 A2992 RMK A01 T01960164  RH  082%=      5-min Rain = 0
KCO2 250659Z 18006KT 20/16 A2992 RMK A01 T01950164  RH  082%=      5-min Rain = 0
KCO2 250700Z 18007KT 20/16 A2992 RMK A01 T01950164  RH  082%=      5-min Rain = 0
KCO2 250701Z 18006KT 20/17 A2992 RMK A01 T01950165  RH  083%=      5-min Rain = 0
KCO2 250702Z 18007KT 20/16 A2992 RMK A01 T01950164  RH  083%=      5-min Rain = 0
KCO2 250703Z 18006KT 19/16 A2992 RMK A01 T01940164  RH  083%=      5-min Rain = 0
KCO2 250704Z 18006KT 19/16 A2992 RMK A01 T01940164  RH  083%=      5-min Rain = 0
KCO2 250705Z 18006KT 19/16 A2992 RMK A01 T01940164  RH  083%=      5-min Rain = 0
KCO2 250706Z 18006KT 19/16 A2993 RMK A01 T01930164  RH  083%=      5-min Rain = 0
KCO2 250707Z 18005KT 19/16 A2993 RMK A01 T01930164  RH  083%=      5-min Rain = 0
KCO2 250708Z 18006KT 19/16 A2993 RMK A01 T01920164  RH  083%=      5-min Rain = 0
KCO2 250709Z 18005KT 19/16 A2993 RMK A01 T01920163  RH  084%=      5-min Rain = 0
KCO2 250710Z 17006KT 19/16 A2993 RMK A01 T01910163  RH  084%=      5-min Rain = 0
KCO2 250711Z 17006KT 19/16 A2993 RMK A01 T01900163  RH  084%=      5-min Rain = 0
KCO2 250712Z 17006KT 19/16 A2993 RMK A01 T01900163  RH  084%=      5-min Rain = 0
KCO2 250713Z 17007KT 19/16 A2993 RMK A01 T01890163  RH  085%=      5-min Rain = 0
KCO2 250714Z 17006KT 19/16 A2993 RMK A01 T01890163  RH  085%=      5-min Rain = 0
KCO2 250715Z 16007KT 19/16 A2993 RMK A01 T01880163  RH  085%=      5-min Rain = 0
KCO2 250716Z 16007KT 19/16 A2993 RMK A01 T01890163  RH  085%=      5-min Rain = 0
KCO2 250717Z 16006KT 19/16 A2993 RMK A01 T01880163  RH  085%=      5-min Rain = 0
KCO2 250718Z 16006KT 19/16 A2993 RMK A01 T01880163  RH  085%=      5-min Rain = 0
KCO2 250719Z 16007KT 19/16 A2993 RMK A01 T01880163  RH  085%=      5-min Rain = 0
KCO2 250720Z 15007KT 19/16 A2993 RMK A01 T01880162  RH  085%=      5-min Rain = 0
KCO2 250721Z 15007KT 19/16 A2993 RMK A01 T01880162  RH  085%=      5-min Rain = 0
KCO2 250722Z 15008KT 19/16 A2993 RMK A01 T01880162  RH  085%=      5-min Rain = 0
KCO2 250723Z 15008KT 19/16 A2993 RMK A01 T01880162  RH  085%=      5-min Rain = 0
KCO2 250724Z 15008KT 19/16 A2993 RMK A01 T01880162  RH  085%=      5-min Rain = 0
KCO2 250725Z 15008KT 19/16 A2993 RMK A01 T01880163  RH  085%=      5-min Rain = 0
KCO2 250726Z 15008KT 19/16 A2993 RMK A01 T01880162  RH  085%=      5-min Rain = 0
KCO2 250727Z 16007KT 19/16 A2993 RMK A01 T01890162  RH  085%=      5-min Rain = 0
KCO2 250728Z 16008KT 19/16 A2993 RMK A01 T01900163  RH  084%=      5-min Rain = 0
KCO2 250729Z 16007KT 19/16 A2993 RMK A01 T01900163  RH  084%=      5-min Rain = 0
KCO2 250730Z 17007KT 19/16 A2993 RMK A01 T01910163  RH  084%=      5-min Rain = 0
KCO2 250731Z 17006KT 19/16 A2993 RMK A01 T01920163  RH  084%=      5-min Rain = 0
KCO2 250732Z 17007KT 19/16 A2993 RMK A01 T01920163  RH  084%=      5-min Rain = 0
KCO2 250733Z 17007KT 19/16 A2993 RMK A01 T01910163  RH  084%=      5-min Rain = 0
KCO2 250734Z 18007KT 19/16 A2993 RMK A01 T01910163  RH  084%=      5-min Rain = 0
KCO2 250735Z 19007KT 19/16 A2993 RMK A01 T01900163  RH  084%=      5-min Rain = 0
KCO2 250736Z 19007KT 19/16 A2993 RMK A01 T01890163  RH  085%=      5-min Rain = 0
KCO2 250737Z 19006KT 19/16 A2993 RMK A01 T01880163  RH  085%=      5-min Rain = 0
KCO2 250738Z 19006KT 19/16 A2993 RMK A01 T01880163  RH  085%=      5-min Rain = 0
KCO2 250739Z 18006KT 19/16 A2993 RMK A01 T01880163  RH  085%=      5-min Rain = 0
KCO2 250740Z 18006KT 19/16 A2993 RMK A01 T01880163  RH  086%=      5-min Rain = 0
KCO2 250741Z 19007KT 19/16 A2993 RMK A01 T01870163  RH  086%=      5-min Rain = 0
KCO2 250742Z 19007KT 19/16 A2993 RMK A01 T01870163  RH  086%=      5-min Rain = 0
KCO2 250743Z 19007KT 19/16 A2993 RMK A01 T01860163  RH  086%=      5-min Rain = 0
KCO2 250744Z 19007KT 19/16 A2993 RMK A01 T01860163  RH  087%=      5-min Rain = 0
KCO2 250745Z 19006KT 19/16 A2993 RMK A01 T01860163  RH  087%=      5-min Rain = 0
KCO2 250746Z 18006KT 19/16 A2993 RMK A01 T01860164  RH  087%=      5-min Rain = 0
KCO2 250747Z 18006KT 19/16 A2993 RMK A01 T01860164  RH  087%=      5-min Rain = 0
KCO2 250748Z 19007KT 19/16 A2994 RMK A01 T01850163  RH  087%=      5-min Rain = 0
KCO2 250749Z 19007KT 19/16 A2994 RMK A01 T01850164  RH  087%=      5-min Rain = 0
KCO2 250750Z 19006KT 19/16 A2994 RMK A01 T01850164  RH  087%=      5-min Rain = 0
KCO2 250751Z 18006KT 19/16 A2993 RMK A01 T01850164  RH  087%=      5-min Rain = 0
KCO2 250752Z 19006KT 19/16 A2994 RMK A01 T01860164  RH  087%=      5-min Rain = 0
KCO2 250753Z 19008KT 19/16 A2994 RMK A01 T01860164  RH  087%=      5-min Rain = 0
KCO2 250754Z 19007KT 19/17 A2994 RMK A01 T01860165  RH  087%=      5-min Rain = 0
KCO2 250755Z 19006KT 19/17 A2994 RMK A01 T01860165  RH  088%=      5-min Rain = 0
KCO2 250756Z 18006KT 19/17 A2993 RMK A01 T01860165  RH  088%=      5-min Rain = 0
KCO2 250757Z 18006KT 19/17 A2994 RMK A01 T01860165  RH  088%=      5-min Rain = 0
KCO2 250758Z 19007KT 19/17 A2994 RMK A01 T01860165  RH  088%=      5-min Rain = 0
KCO2 250759Z 18007KT 19/17 A2994 RMK A01 T01860165  RH  088%=      5-min Rain = 0
KCO2 250800Z 18007KT 19/17 A2994 RMK A01 T01860166  RH  088%=      5-min Rain = 0
KCO2 250801Z 19008KT 19/17 A2994 RMK A01 T01860166  RH  088%=      5-min Rain = 0
KCO2 250802Z 19007KT 19/17 A2994 RMK A01 T01860166  RH  088%=      5-min Rain = 0
KCO2 250803Z 18007KT 19/17 A2994 RMK A01 T01860166  RH  088%=      5-min Rain = 0
KCO2 250804Z 18007KT 19/17 A2994 RMK A01 T01860166  RH  088%=      5-min Rain = 0
KCO2 250805Z 18006KT 19/17 A2994 RMK A01 T01870167  RH  088%=      5-min Rain = 0
KCO2 250806Z 18006KT 19/17 A2994 RMK A01 T01870166  RH  088%=      5-min Rain = 0
KCO2 250807Z 19007KT 19/17 A2994 RMK A01 T01860166  RH  088%=      5-min Rain = 0
KCO2 250808Z 18006KT 19/17 A2994 RMK A01 T01850166  RH  088%=      5-min Rain = 0
KCO2 250809Z 19006KT 19/17 A2994 RMK A01 T01850166  RH  089%=      5-min Rain = 0
KCO2 250810Z 19006KT 19/17 A2995 RMK A01 T01850166  RH  089%=      5-min Rain = 0
KCO2 250811Z 19006KT 18/17 A2994 RMK A01 T01840166  RH  089%=      5-min Rain = 0
KCO2 250812Z 18005KT 18/17 A2994 RMK A01 T01840166  RH  089%=      5-min Rain = 0
KCO2 250813Z 18006KT 18/17 A2994 RMK A01 T01840166  RH  089%=      5-min Rain = 0
KCO2 250814Z 18006KT 18/17 A2994 RMK A01 T01840166  RH  089%=      5-min Rain = 0
KCO2 250815Z 18006KT 18/17 A2994 RMK A01 T01840166  RH  089%=      5-min Rain = 0
KCO2 250816Z 18006KT 18/17 A2994 RMK A01 T01840166  RH  089%=      5-min Rain = 0
KCO2 250817Z 17006KT 18/17 A2994 RMK A01 T01840166  RH  089%=      5-min Rain = 0
KCO2 250818Z 17006KT 18/17 A2994 RMK A01 T01840166  RH  089%=      5-min Rain = 0
KCO2 250819Z 17006KT 19/17 A2994 RMK A01 T01850166  RH  089%=      5-min Rain = 0
KCO2 250820Z 17006KT 18/17 A2994 RMK A01 T01840166  RH  089%=      5-min Rain = 0
KCO2 250821Z 18005KT 18/17 A2994 RMK A01 T01840166  RH  089%=      5-min Rain = 0
KCO2 250822Z 17005KT 18/17 A2994 RMK A01 T01840166  RH  089%=      5-min Rain = 0
KCO2 250823Z 17006KT 18/17 A2994 RMK A01 T01840166  RH  089%=      5-min Rain = 0
KCO2 250824Z 18006KT 18/17 A2994 RMK A01 T01840166  RH  089%=      5-min Rain = 0
KCO2 250825Z 17006KT 18/17 A2994 RMK A01 T01830165  RH  089%=      5-min Rain = 0
KCO2 250826Z 17006KT 18/17 A2994 RMK A01 T01830165  RH  089%=      5-min Rain = 0
KCO2 250827Z 18005KT 18/16 A2994 RMK A01 T01820164  RH  090%=      5-min Rain = 0
KCO2 250828Z 18005KT 18/16 A2994 RMK A01 T01810164  RH  090%=      5-min Rain = 0
KCO2 250829Z 18006KT 18/17 A2994 RMK A01 T01810165  RH  090%=      5-min Rain = 0
KCO2 250830Z 18006KT 18/16 A2994 RMK A01 T01810164  RH  090%=      5-min Rain = 0
KCO2 250831Z 18005KT 18/16 A2994 RMK A01 T01800164  RH  090%=      5-min Rain = 0
KCO2 250832Z 18005KT 18/16 A2994 RMK A01 T01800164  RH  090%=      5-min Rain = 0
KCO2 250833Z 18005KT 18/16 A2994 RMK A01 T01790163  RH  090%=      5-min Rain = 0
KCO2 250834Z 18005KT 18/16 A2994 RMK A01 T01790163  RH  091%=      5-min Rain = 0
KCO2 250835Z 18005KT 18/16 A2994 RMK A01 T01780163  RH  091%=      5-min Rain = 0
KCO2 250836Z 18005KT 18/16 A2994 RMK A01 T01770162  RH  091%=      5-min Rain = 0
KCO2 250837Z 18005KT 18/16 A2994 RMK A01 T01770162  RH  091%=      5-min Rain = 0
KCO2 250838Z 18005KT 18/16 A2994 RMK A01 T01760161  RH  091%=      5-min Rain = 0
KCO2 250839Z 18005KT 18/16 A2994 RMK A01 T01750161  RH  091%=      5-min Rain = 0
KCO2 250840Z 19005KT 18/16 A2994 RMK A01 T01750161  RH  091%=      5-min Rain = 0
KCO2 250841Z 20004KT 17/16 A2994 RMK A01 T01740160  RH  091%=      5-min Rain = 0
KCO2 250842Z 19004KT 17/16 A2994 RMK A01 T01740160  RH  092%=      5-min Rain = 0
KCO2 250843Z 20004KT 17/16 A2994 RMK A01 T01740161  RH  092%=      5-min Rain = 0
KCO2 250844Z 20004KT 17/16 A2994 RMK A01 T01740161  RH  092%=      5-min Rain = 0
KCO2 250845Z 20004KT 17/16 A2994 RMK A01 T01740160  RH  092%=      5-min Rain = 0
KCO2 250846Z 20004KT 17/16 A2994 RMK A01 T01740161  RH  092%=      5-min Rain = 0
KCO2 250847Z 21004KT 17/16 A2994 RMK A01 T01740161  RH  092%=      5-min Rain = 0
KCO2 250848Z 21004KT 17/16 A2994 RMK A01 T01740161  RH  092%=      5-min Rain = 0
KCO2 250849Z 21004KT 17/16 A2994 RMK A01 T01740161  RH  092%=      5-min Rain = 0
KCO2 250850Z 20004KT 17/16 A2994 RMK A01 T01740161  RH  092%=      5-min Rain = 0
KCO2 250851Z 20004KT 17/16 A2994 RMK A01 T01740161  RH  092%=      5-min Rain = 0
KCO2 250852Z 19004KT 17/16 A2994 RMK A01 T01740161  RH  092%=      5-min Rain = 0
KCO2 250853Z 19004KT 17/16 A2994 RMK A01 T01740161  RH  092%=      5-min Rain = 0
KCO2 250854Z 19004KT 17/16 A2994 RMK A01 T01730160  RH  092%=      5-min Rain = 0
KCO2 250855Z 19004KT 17/16 A2994 RMK A01 T01730159  RH  092%=      5-min Rain = 0
KCO2 250856Z 20003KT 17/16 A2994 RMK A01 T01720158  RH  092%=      5-min Rain = 0
KCO2 250857Z 20003KT 17/16 A2995 RMK A01 T01710157  RH  092%=      5-min Rain = 0
KCO2 250858Z 21003KT 17/16 A2995 RMK A01 T01710157  RH  092%=      5-min Rain = 0
KCO2 250859Z 22003KT 17/16 A2995 RMK A01 T01710158  RH  092%=      5-min Rain = 0
KCO2 250900Z 22003KT 17/16 A2994 RMK A01 T01710159  RH  093%=      5-min Rain = 0
KCO2 250901Z 23003KT 17/16 A2994 RMK A01 T01710160  RH  093%=      5-min Rain = 0
KCO2 250902Z 23003KT 17/16 A2994 RMK A01 T01710161  RH  094%=      5-min Rain = 0
KCO2 250903Z 22003KT 17/16 A2994 RMK A01 T01720162  RH  094%=      5-min Rain = 0
KCO2 250904Z 22003KT 17/16 A2994 RMK A01 T01730163  RH  094%=      5-min Rain = 0
KCO2 250905Z 21003KT 17/16 A2994 RMK A01 T01730164  RH  094%=      5-min Rain = 0
KCO2 250906Z 21003KT 17/16 A2994 RMK A01 T01730164  RH  094%=      5-min Rain = 0
KCO2 250907Z 21003KT 17/16 A2994 RMK A01 T01740164  RH  094%=      5-min Rain = 0
KCO2 250908Z 22003KT 17/16 A2994 RMK A01 T01740164  RH  094%=      5-min Rain = 0
KCO2 250909Z 22003KT 17/16 A2994 RMK A01 T01740164  RH  094%=      5-min Rain = 0
KCO2 250910Z 22003KT 17/16 A2994 RMK A01 T01740164  RH  094%=      5-min Rain = 0
KCO2 250911Z 23003KT 18/17 A2994 RMK A01 T01750165  RH  094%=      5-min Rain = 0
KCO2 250912Z 23003KT 18/16 A2994 RMK A01 T01750164  RH  094%=      5-min Rain = 0
KCO2 250913Z 23003KT 18/16 A2994 RMK A01 T01750164  RH  094%=      5-min Rain = 0
KCO2 250914Z 23003KT 18/16 A2994 RMK A01 T01750164  RH  093%=      5-min Rain = 0
KCO2 250915Z 24003KT 18/16 A2994 RMK A01 T01750164  RH  093%=      5-min Rain = 0
KCO2 250916Z 24003KT 18/16 A2994 RMK A01 T01750164  RH  093%=      5-min Rain = 0
KCO2 250917Z 24003KT 18/16 A2994 RMK A01 T01750164  RH  094%=      5-min Rain = 0
KCO2 250918Z 24003KT 18/16 A2994 RMK A01 T01750164  RH  094%=      5-min Rain = 0
KCO2 250919Z 24003KT 18/16 A2994 RMK A01 T01750164  RH  094%=      5-min Rain = 0
KCO2 250920Z 25003KT 18/16 A2994 RMK A01 T01750164  RH  094%=      5-min Rain = 0
KCO2 250921Z 26003KT 18/16 A2994 RMK A01 T01750164  RH  094%=      5-min Rain = 0
KCO2 250922Z 26003KT 18/16 A2994 RMK A01 T01750164  RH  094%=      5-min Rain = 0
KCO2 250923Z 27002KT 17/16 A2994 RMK A01 T01740164  RH  094%=      5-min Rain = 0
KCO2 250924Z 27002KT 17/16 A2994 RMK A01 T01740164  RH  094%=      5-min Rain = 0
KCO2 250925Z 27002KT 17/16 A2994 RMK A01 T01740164  RH  094%=      5-min Rain = 0
KCO2 250926Z 28002KT 17/16 A2994 RMK A01 T01730163  RH  094%=      5-min Rain = 0
KCO2 250927Z 28002KT 17/16 A2994 RMK A01 T01730163  RH  094%=      5-min Rain = 0
KCO2 250928Z 28002KT 17/16 A2994 RMK A01 T01730163  RH  094%=      5-min Rain = 0
KCO2 250929Z 28002KT 17/16 A2994 RMK A01 T01730163  RH  094%=      5-min Rain = 0
KCO2 250930Z 28001KT 17/16 A2994 RMK A01 T01720163  RH  094%=      5-min Rain = 0
KCO2 250931Z 28001KT 17/16 A2994 RMK A01 T01720162  RH  094%=      5-min Rain = 0
KCO2 250932Z 28001KT 17/16 A2994 RMK A01 T01720163  RH  094%=      5-min Rain = 0
KCO2 250933Z 28001KT 17/16 A2994 RMK A01 T01720161  RH  094%=      5-min Rain = 0
KCO2 250934Z 28001KT 17/16 A2994 RMK A01 T01710159  RH  093%=      5-min Rain = 0
KCO2 250935Z 30001KT 17/16 A2994 RMK A01 T01710159  RH  092%=      5-min Rain = 0
KCO2 250936Z 30001KT 17/16 A2994 RMK A01 T01710156  RH  091%=      5-min Rain = 0
KCO2 250937Z 30001KT 17/15 A2994 RMK A01 T01690153  RH  090%=      5-min Rain = 0
KCO2 250938Z 31001KT 17/15 A2995 RMK A01 T01690152  RH  090%=      5-min Rain = 0
KCO2 250939Z 31000KT 17/15 A2995 RMK A01 T01680152  RH  090%=      5-min Rain = 0
KCO2 250940Z 00000KT 17/15 A2995 RMK A01 T01680153  RH  091%=      5-min Rain = 0
KCO2 250941Z 00000KT 17/15 A2994 RMK A01 T01680154  RH  091%=      5-min Rain = 0
KCO2 250942Z 00000KT 17/16 A2994 RMK A01 T01690155  RH  092%=      5-min Rain = 0
KCO2 250943Z 24000KT 17/16 A2994 RMK A01 T01690155  RH  091%=      5-min Rain = 0
KCO2 250944Z 24002KT 17/16 A2994 RMK A01 T01690155  RH  091%=      5-min Rain = 0
KCO2 250945Z 24002KT 17/16 A2994 RMK A01 T01700157  RH  092%=      5-min Rain = 0
KCO2 250946Z 24002KT 17/16 A2994 RMK A01 T01700157  RH  092%=      5-min Rain = 0
KCO2 250947Z 25002KT 17/16 A2994 RMK A01 T01710157  RH  092%=      5-min Rain = 0
KCO2 250948Z 25003KT 17/16 A2994 RMK A01 T01710158  RH  092%=      5-min Rain = 0
KCO2 250949Z 25003KT 17/16 A2994 RMK A01 T01720160  RH  093%=      5-min Rain = 0
KCO2 250950Z 25003KT 18/16 A2994 RMK A01 T01750163  RH  093%=      5-min Rain = 0
KCO2 250951Z 25003KT 18/16 A2994 RMK A01 T01760164  RH  092%=      5-min Rain = 0
KCO2 250952Z 24003KT 18/16 A2994 RMK A01 T01770162  RH  091%=      5-min Rain = 0
KCO2 250953Z 24003KT 18/16 A2994 RMK A01 T01770161  RH  091%=      5-min Rain = 0
KCO2 250954Z 25002KT 18/16 A2994 RMK A01 T01770161  RH  091%=      5-min Rain = 0
KCO2 250955Z 24002KT 18/16 A2995 RMK A01 T01770161  RH  091%=      5-min Rain = 0
KCO2 250956Z 25002KT 18/16 A2995 RMK A01 T01770162  RH  091%=      5-min Rain = 0
KCO2 250957Z 25002KT 18/16 A2995 RMK A01 T01780162  RH  090%=      5-min Rain = 0
KCO2 250958Z 26002KT 18/16 A2995 RMK A01 T01780162  RH  090%=      5-min Rain = 0
KCO2 250959Z 27002KT 18/16 A2995 RMK A01 T01780162  RH  091%=      5-min Rain = 0
KCO2 251000Z 26002KT 18/16 A2995 RMK A01 T01780162  RH  091%=      5-min Rain = 0
KCO2 251001Z 27002KT 18/16 A2995 RMK A01 T01780162  RH  090%=      5-min Rain = 0
KCO2 251002Z 28003KT 18/16 A2995 RMK A01 T01780162  RH  090%=      5-min Rain = 0
KCO2 251003Z 27003KT 18/16 A2995 RMK A01 T01760157  RH  089%=      5-min Rain = 0
KCO2 251004Z 27003KT 17/15 A2995 RMK A01 T01730153  RH  088%=      5-min Rain = 0
KCO2 251005Z 27003KT 17/15 A2995 RMK A01 T01700151  RH  088%=      5-min Rain = 0
KCO2 251006Z 27003KT 17/15 A2995 RMK A01 T01690151  RH  089%=      5-min Rain = 0
KCO2 251007Z 28003KT 17/15 A2995 RMK A01 T01680152  RH  090%=      5-min Rain = 0
KCO2 251008Z 28003KT 17/15 A2995 RMK A01 T01670151  RH  090%=      5-min Rain = 0
KCO2 251009Z 29003KT 17/15 A2995 RMK A01 T01660152  RH  091%=      5-min Rain = 0
KCO2 251010Z 29003KT 17/15 A2995 RMK A01 T01660152  RH  091%=      5-min Rain = 0
KCO2 251011Z 29003KT 17/15 A2995 RMK A01 T01650150  RH  091%=      5-min Rain = 0
KCO2 251012Z 29003KT 16/15 A2995 RMK A01 T01630149  RH  091%=      5-min Rain = 0
KCO2 251013Z 29003KT 16/15 A2995 RMK A01 T01620149  RH  092%=      5-min Rain = 0
KCO2 251014Z 29003KT 16/15 A2995 RMK A01 T01620149  RH  092%=      5-min Rain = 0
KCO2 251015Z 28003KT 16/15 A2995 RMK A01 T01610148  RH  092%=      5-min Rain = 0
KCO2 251016Z 29003KT 16/15 A2995 RMK A01 T01600148  RH  093%=      5-min Rain = 0
KCO2 251017Z 29002KT 16/15 A2995 RMK A01 T01610149  RH  093%=      5-min Rain = 0
KCO2 251018Z 29002KT 16/15 A2996 RMK A01 T01600149  RH  093%=      5-min Rain = 0
KCO2 251019Z 29002KT 16/15 A2996 RMK A01 T01600150  RH  093%=      5-min Rain = 0
KCO2 251020Z 29002KT 16/15 A2996 RMK A01 T01600150  RH  094%=      5-min Rain = 0
KCO2 251021Z 30002KT 16/15 A2996 RMK A01 T01610151  RH  094%=      5-min Rain = 0
KCO2 251022Z 33002KT 16/15 A2996 RMK A01 T01610151  RH  094%=      5-min Rain = 0
KCO2 251023Z 33003KT 16/15 A2996 RMK A01 T01610152  RH  094%=      5-min Rain = 0
KCO2 251024Z 34003KT 16/15 A2996 RMK A01 T01610152  RH  094%=      5-min Rain = 0
KCO2 251025Z 34003KT 16/15 A2996 RMK A01 T01600151  RH  094%=      5-min Rain = 0
KCO2 251026Z 34004KT 16/15 A2996 RMK A01 T01600151  RH  094%=      5-min Rain = 0
KCO2 251027Z 34004KT 16/15 A2996 RMK A01 T01600151  RH  094%=      5-min Rain = 0
KCO2 251028Z 34004KT 16/15 A2996 RMK A01 T01600150  RH  094%=      5-min Rain = 0
KCO2 251029Z 35004KT 16/15 A2996 RMK A01 T01600150  RH  094%=      5-min Rain = 0
KCO2 251030Z 35003KT 16/15 A2996 RMK A01 T01600151  RH  094%=      5-min Rain = 0
KCO2 251031Z 33003KT 16/15 A2996 RMK A01 T01600151  RH  094%=      5-min Rain = 0
KCO2 251032Z 33003KT 16/15 A2996 RMK A01 T01600151  RH  094%=      5-min Rain = 0
KCO2 251033Z 32003KT 16/15 A2996 RMK A01 T01610151  RH  094%=      5-min Rain = 0
KCO2 251034Z 32003KT 16/15 A2996 RMK A01 T01600151  RH  094%=      5-min Rain = 0
KCO2 251035Z 32003KT 16/15 A2996 RMK A01 T01600151  RH  094%=      5-min Rain = 0
KCO2 251036Z 31003KT 16/15 A2997 RMK A01 T01600151  RH  094%=      5-min Rain = 0
KCO2 251037Z 30003KT 16/15 A2997 RMK A01 T01600152  RH  094%=      5-min Rain = 0
KCO2 251038Z 30003KT 16/15 A2997 RMK A01 T01610152  RH  095%=      5-min Rain = 0
KCO2 251039Z 30003KT 16/15 A2997 RMK A01 T01620153  RH  095%=      5-min Rain = 0
KCO2 251040Z 31003KT 16/15 A2997 RMK A01 T01620153  RH  094%=      5-min Rain = 0
KCO2 251041Z 31004KT 16/15 A2997 RMK A01 T01620153  RH  094%=      5-min Rain = 0
KCO2 251042Z 31004KT 16/15 A2997 RMK A01 T01620152  RH  094%=      5-min Rain = 0
KCO2 251043Z 31004KT 16/15 A2997 RMK A01 T01610151  RH  094%=      5-min Rain = 0
KCO2 251044Z 31004KT 16/15 A2997 RMK A01 T01610151  RH  094%=      5-min Rain = 0
KCO2 251045Z 31004KT 16/15 A2997 RMK A01 T01590149  RH  093%=      5-min Rain = 0
KCO2 251046Z 31004KT 16/15 A2997 RMK A01 T01580146  RH  093%=      5-min Rain = 0
KCO2 251047Z 31004KT 16/15 A2997 RMK A01 T01570146  RH  093%=      5-min Rain = 0
KCO2 251048Z 31004KT 16/15 A2997 RMK A01 T01560147  RH  094%=      5-min Rain = 0
KCO2 251049Z 31004KT 16/15 A2997 RMK A01 T01560147  RH  094%=      5-min Rain = 0
KCO2 251050Z 31004KT 16/15 A2997 RMK A01 T01560148  RH  094%=      5-min Rain = 0
KCO2 251051Z 30004KT 16/15 A2997 RMK A01 T01560148  RH  095%=      5-min Rain = 0
KCO2 251052Z 30003KT 16/15 A2997 RMK A01 T01570149  RH  095%=      5-min Rain = 0
KCO2 251053Z 30003KT 16/15 A2997 RMK A01 T01580151  RH  095%=      5-min Rain = 0
KCO2 251054Z 30003KT 16/15 A2997 RMK A01 T01580151  RH  095%=      5-min Rain = 0
KCO2 251055Z 31003KT 16/15 A2997 RMK A01 T01580151  RH  095%=      5-min Rain = 0
KCO2 251056Z 31003KT 16/15 A2997 RMK A01 T01590151  RH  095%=      5-min Rain = 0
KCO2 251057Z 31003KT 16/15 A2997 RMK A01 T01590151  RH  095%=      5-min Rain = 0
KCO2 251058Z 31003KT 16/15 A2997 RMK A01 T01590152  RH  095%=      5-min Rain = 0
KCO2 251059Z 31003KT 16/15 A2997 RMK A01 T01590152  RH  096%=      5-min Rain = 0
KCO2 251100Z 30003KT 16/15 A2997 RMK A01 T01590152  RH  096%=      5-min Rain = 0
KCO2 251101Z 31003KT 16/15 A2997 RMK A01 T01600153  RH  096%=      5-min Rain = 0
KCO2 251102Z 31003KT 16/15 A2997 RMK A01 T01600153  RH  095%=      5-min Rain = 0
KCO2 251103Z 30004KT 16/15 A2997 RMK A01 T01600152  RH  095%=      5-min Rain = 0
KCO2 251104Z 30003KT 16/15 A2997 RMK A01 T01590151  RH  095%=      5-min Rain = 0
KCO2 251105Z 30003KT 16/15 A2997 RMK A01 T01600153  RH  095%=      5-min Rain = 0
KCO2 251106Z 30003KT 16/15 A2997 RMK A01 T01610153  RH  095%=      5-min Rain = 0
KCO2 251107Z 30003KT 16/15 A2997 RMK A01 T01600151  RH  094%=      5-min Rain = 0
KCO2 251108Z 30004KT 16/15 A2997 RMK A01 T01600150  RH  094%=      5-min Rain = 0
KCO2 251109Z 30004KT 16/15 A2997 RMK A01 T01580147  RH  093%=      5-min Rain = 0
KCO2 251110Z 30004KT 16/15 A2997 RMK A01 T01570145  RH  093%=      5-min Rain = 0
KCO2 251111Z 30003KT 16/15 A2997 RMK A01 T01560145  RH  093%=      5-min Rain = 0
KCO2 251112Z 30003KT 16/15 A2997 RMK A01 T01570147  RH  094%=      5-min Rain = 0
KCO2 251113Z 30003KT 16/15 A2997 RMK A01 T01580148  RH  094%=      5-min Rain = 0
KCO2 251114Z 30004KT 16/15 A2997 RMK A01 T01590150  RH  094%=      5-min Rain = 0
KCO2 251115Z 30003KT 16/15 A2997 RMK A01 T01610151  RH  094%=      5-min Rain = 0
KCO2 251116Z 30003KT 16/15 A2997 RMK A01 T01620151  RH  094%=      5-min Rain = 0
KCO2 251117Z 30003KT 16/15 A2997 RMK A01 T01620151  RH  093%=      5-min Rain = 0
KCO2 251118Z 30003KT 16/15 A2997 RMK A01 T01620151  RH  093%=      5-min Rain = 0
KCO2 251119Z 31002KT 16/15 A2997 RMK A01 T01620151  RH  093%=      5-min Rain = 0
KCO2 251120Z 31002KT 16/15 A2997 RMK A01 T01620151  RH  093%=      5-min Rain = 0
KCO2 251121Z 31002KT 16/15 A2997 RMK A01 T01630152  RH  093%=      5-min Rain = 0
KCO2 251122Z 31002KT 16/15 A2997 RMK A01 T01640152  RH  093%=      5-min Rain = 0
KCO2 251123Z 31002KT 17/15 A2997 RMK A01 T01650153  RH  093%=      5-min Rain = 0
KCO2 251124Z 30002KT 17/15 A2997 RMK A01 T01660154  RH  093%=      5-min Rain = 0
KCO2 251125Z 30003KT 17/15 A2997 RMK A01 T01660154  RH  092%=      5-min Rain = 0
KCO2 251126Z 30002KT 17/15 A2997 RMK A01 T01660153  RH  092%=      5-min Rain = 0
KCO2 251127Z 31002KT 17/15 A2997 RMK A01 T01660152  RH  091%=      5-min Rain = 0
KCO2 251128Z 31002KT 17/15 A2997 RMK A01 T01660152  RH  091%=      5-min Rain = 0
KCO2 251129Z 30002KT 17/15 A2997 RMK A01 T01660151  RH  091%=      5-min Rain = 0
KCO2 251130Z 31002KT 17/15 A2997 RMK A01 T01660151  RH  091%=      5-min Rain = 0
KCO2 251131Z 32002KT 17/15 A2997 RMK A01 T01660152  RH  091%=      5-min Rain = 0
KCO2 251132Z 32002KT 17/15 A2998 RMK A01 T01660152  RH  091%=      5-min Rain = 0
KCO2 251133Z 31002KT 17/15 A2998 RMK A01 T01660150  RH  090%=      5-min Rain = 0
KCO2 251134Z 31002KT 17/15 A2998 RMK A01 T01650147  RH  089%=      5-min Rain = 0
KCO2 251135Z 33002KT 16/15 A2998 RMK A01 T01640147  RH  089%=      5-min Rain = 0
KCO2 251136Z 33001KT 16/15 A2998 RMK A01 T01640148  RH  090%=      5-min Rain = 0
KCO2 251137Z 33001KT 16/15 A2998 RMK A01 T01640148  RH  090%=      5-min Rain = 0
KCO2 251138Z 32001KT 16/15 A2998 RMK A01 T01640147  RH  090%=      5-min Rain = 0
KCO2 251139Z 32001KT 16/15 A2998 RMK A01 T01640148  RH  090%=      5-min Rain = 0
KCO2 251140Z 31001KT 16/15 A2998 RMK A01 T01640148  RH  090%=      5-min Rain = 0
KCO2 251141Z 31001KT 17/15 A2998 RMK A01 T01650149  RH  090%=      5-min Rain = 0
KCO2 251142Z 31001KT 17/15 A2998 RMK A01 T01650148  RH  090%=      5-min Rain = 0
KCO2 251143Z 33001KT 17/15 A2998 RMK A01 T01650148  RH  090%=      5-min Rain = 0
KCO2 251144Z 31001KT 17/15 A2998 RMK A01 T01650149  RH  090%=      5-min Rain = 0
KCO2 251145Z 31001KT 17/15 A2998 RMK A01 T01650149  RH  090%=      5-min Rain = 0
KCO2 251146Z 31002KT 17/15 A2998 RMK A01 T01660149  RH  090%=      5-min Rain = 0
KCO2 251147Z 31002KT 17/15 A2998 RMK A01 T01670150  RH  090%=      5-min Rain = 0
KCO2 251148Z 31002KT 17/15 A2998 RMK A01 T01670149  RH  089%=      5-min Rain = 0
KCO2 251149Z 31002KT 17/15 A2998 RMK A01 T01670150  RH  089%=      5-min Rain = 0
KCO2 251150Z 32002KT 17/15 A2998 RMK A01 T01680150  RH  089%=      5-min Rain = 0
KCO2 251151Z 32002KT 17/15 A2998 RMK A01 T01690151  RH  089%=      5-min Rain = 0
KCO2 251152Z 32002KT 17/15 A2998 RMK A01 T01700150  RH  088%=      5-min Rain = 0
KCO2 251153Z 31002KT 17/15 A2998 RMK A01 T01700150  RH  088%=      5-min Rain = 0
KCO2 251154Z 31002KT 17/15 A2998 RMK A01 T01710150  RH  087%=      5-min Rain = 0
KCO2 251155Z 31001KT 17/15 A2998 RMK A01 T01720150  RH  087%=      5-min Rain = 0
KCO2 251156Z 31002KT 17/15 A2998 RMK A01 T01730150  RH  086%=      5-min Rain = 0
KCO2 251157Z 31002KT 17/15 A2998 RMK A01 T01740150  RH  086%=      5-min Rain = 0
KCO2 251158Z 31002KT 18/15 A2998 RMK A01 T01750150  RH  085%=      5-min Rain = 0
KCO2 251159Z 31002KT 18/15 A2998 RMK A01 T01750149  RH  085%=      5-min Rain = 0
KCO2 251200Z 31002KT 18/15 A2998 RMK A01 T01750149  RH  085%=      5-min Rain = 0
KCO2 251201Z 31002KT 18/15 A2998 RMK A01 T01750149  RH  085%=      5-min Rain = 0
KCO2 251202Z 32002KT 17/15 A2998 RMK A01 T01740149  RH  085%=      5-min Rain = 0
KCO2 251203Z 32002KT 17/15 A2998 RMK A01 T01740149  RH  085%=      5-min Rain = 0
KCO2 251204Z 32002KT 17/15 A2998 RMK A01 T01740149  RH  085%=      5-min Rain = 0
KCO2 251205Z 33002KT 18/15 A2998 RMK A01 T01750149  RH  085%=      5-min Rain = 0
KCO2 251206Z 33002KT 18/15 A2998 RMK A01 T01750149  RH  085%=      5-min Rain = 0
KCO2 251207Z 33002KT 18/15 A2998 RMK A01 T01750149  RH  085%=      5-min Rain = 0
KCO2 251208Z 33002KT 18/15 A2998 RMK A01 T01750149  RH  085%=      5-min Rain = 0
KCO2 251209Z 33002KT 18/15 A2998 RMK A01 T01750150  RH  085%=      5-min Rain = 0
KCO2 251210Z 34002KT 18/15 A2998 RMK A01 T01760150  RH  085%=      5-min Rain = 0
KCO2 251211Z 33002KT 18/15 A2998 RMK A01 T01760150  RH  085%=      5-min Rain = 0
KCO2 251212Z 32002KT 18/15 A2998 RMK A01 T01770151  RH  085%=      5-min Rain = 0
KCO2 251213Z 32002KT 18/15 A2998 RMK A01 T01770151  RH  085%=      5-min Rain = 0
KCO2 251214Z 32002KT 18/15 A2998 RMK A01 T01780152  RH  085%=      5-min Rain = 0
KCO2 251215Z 33003KT 18/15 A2998 RMK A01 T01780152  RH  085%=      5-min Rain = 0
KCO2 251216Z 34003KT 18/15 A2998 RMK A01 T01790153  RH  085%=      5-min Rain = 0
KCO2 251217Z 34003KT 18/15 A2998 RMK A01 T01780152  RH  085%=      5-min Rain = 0
KCO2 251218Z 35003KT 18/15 A2999 RMK A01 T01790153  RH  085%=      5-min Rain = 0
KCO2 251219Z 35002KT 18/16 A2999 RMK A01 T01800155  RH  085%=      5-min Rain = 0
KCO2 251220Z 35003KT 18/15 A2999 RMK A01 T01810154  RH  085%=      5-min Rain = 0
KCO2 251221Z 35003KT 18/15 A2999 RMK A01 T01810154  RH  084%=      5-min Rain = 0
KCO2 251222Z 36003KT 18/15 A2999 RMK A01 T01810154  RH  084%=      5-min Rain = 0
KCO2 251223Z 36003KT 18/16 A2999 RMK A01 T01820155  RH  084%=      5-min Rain = 0
KCO2 251224Z 35003KT 18/16 A2999 RMK A01 T01820156  RH  084%=      5-min Rain = 0
KCO2 251225Z 36003KT 18/16 A2999 RMK A01 T01830156  RH  085%=      5-min Rain = 0
KCO2 251226Z 36003KT 18/16 A2999 RMK A01 T01830157  RH  085%=      5-min Rain = 0
KCO2 251227Z 35003KT 18/16 A2999 RMK A01 T01830157  RH  085%=      5-min Rain = 0
KCO2 251228Z 35003KT 18/16 A2999 RMK A01 T01830157  RH  084%=      5-min Rain = 0
KCO2 251229Z 34004KT 18/16 A2999 RMK A01 T01830157  RH  085%=      5-min Rain = 0
KCO2 251230Z 34004KT 18/16 A2999 RMK A01 T01830158  RH  085%=      5-min Rain = 0
KCO2 251231Z 34004KT 18/16 A2999 RMK A01 T01840159  RH  085%=      5-min Rain = 0
KCO2 251232Z 34004KT 18/16 A2999 RMK A01 T01830159  RH  085%=      5-min Rain = 0
KCO2 251233Z 34004KT 18/16 A2999 RMK A01 T01830159  RH  086%=      5-min Rain = 0
KCO2 251234Z 33004KT 18/16 A2999 RMK A01 T01840161  RH  086%=      5-min Rain = 0
KCO2 251235Z 33003KT 19/16 A2999 RMK A01 T01850162  RH  086%=      5-min Rain = 0
KCO2 251236Z 34003KT 19/16 A2999 RMK A01 T01850162  RH  086%=      5-min Rain = 0
KCO2 251237Z 34003KT 19/16 A2999 RMK A01 T01860162  RH  086%=      5-min Rain = 0
KCO2 251238Z 34003KT 19/16 A2999 RMK A01 T01860163  RH  086%=      5-min Rain = 0
KCO2 251239Z 34003KT 19/16 A2999 RMK A01 T01870162  RH  085%=      5-min Rain = 0
KCO2 251240Z 34003KT 19/16 A2999 RMK A01 T01880161  RH  085%=      5-min Rain = 0
KCO2 251241Z 34003KT 19/16 A2999 RMK A01 T01880163  RH  085%=      5-min Rain = 0
KCO2 251242Z 34002KT 19/16 A2999 RMK A01 T01890164  RH  085%=      5-min Rain = 0
KCO2 251243Z 34002KT 19/16 A2999 RMK A01 T01890164  RH  085%=      5-min Rain = 0
KCO2 251244Z 33002KT 19/16 A2999 RMK A01 T01900164  RH  085%=      5-min Rain = 0
KCO2 251245Z 33002KT 19/16 A2999 RMK A01 T01900163  RH  084%=      5-min Rain = 0
KCO2 251246Z 32002KT 19/16 A2999 RMK A01 T01910164  RH  084%=      5-min Rain = 0
KCO2 251247Z 33002KT 19/17 A2999 RMK A01 T01920167  RH  085%=      5-min Rain = 0
KCO2 251248Z 34002KT 19/17 A2999 RMK A01 T01930168  RH  086%=      5-min Rain = 0
KCO2 251249Z 33003KT 19/17 A2999 RMK A01 T01940169  RH  085%=      5-min Rain = 0
KCO2 251250Z 34002KT 20/17 A2999 RMK A01 T01950170  RH  085%=      5-min Rain = 0
KCO2 251251Z 34002KT 20/17 A2999 RMK A01 T01970171  RH  085%=      5-min Rain = 0
KCO2 251252Z 34002KT 20/17 A2999 RMK A01 T01970168  RH  083%=      5-min Rain = 0
KCO2 251253Z 34003KT 20/17 A2999 RMK A01 T01980168  RH  083%=      5-min Rain = 0
KCO2 251254Z 33002KT 20/17 A2999 RMK A01 T01980166  RH  082%=      5-min Rain = 0
KCO2 251255Z 33002KT 20/17 A2999 RMK A01 T01980169  RH  083%=      5-min Rain = 0
KCO2 251256Z 33002KT 20/17 A2999 RMK A01 T01990167  RH  082%=      5-min Rain = 0
KCO2 251257Z 33002KT 20/17 A2999 RMK A01 T02000166  RH  081%=      5-min Rain = 0
KCO2 251258Z 33002KT 20/17 A2999 RMK A01 T02000166  RH  081%=      5-min Rain = 0
KCO2 251259Z 32002KT 20/17 A2999 RMK A01 T02010166  RH  081%=      5-min Rain = 0
KCO2 251300Z 31002KT 20/17 A2999 RMK A01 T02010167  RH  081%=      5-min Rain = 0
KCO2 251301Z 31003KT 20/17 A2999 RMK A01 T02030167  RH  080%=      5-min Rain = 0
KCO2 251302Z 31002KT 20/17 A2999 RMK A01 T02030165  RH  079%=      5-min Rain = 0
KCO2 251303Z 32002KT 20/17 A2999 RMK A01 T02030166  RH  079%=      5-min Rain = 0
KCO2 251304Z 31003KT 20/17 A2999 RMK A01 T02040166  RH  079%=      5-min Rain = 0
KCO2 251305Z 31002KT 20/16 A2999 RMK A01 T02040164  RH  078%=      5-min Rain = 0
KCO2 251306Z 31001KT 21/17 A2999 RMK A01 T02050168  RH  079%=      5-min Rain = 0
KCO2 251307Z 31002KT 21/17 A2999 RMK A01 T02050166  RH  078%=      5-min Rain = 0
KCO2 251308Z 31002KT 21/17 A2999 RMK A01 T02060165  RH  077%=      5-min Rain = 0
KCO2 251309Z 32002KT 21/16 A2999 RMK A01 T02060164  RH  077%=      5-min Rain = 0
KCO2 251310Z 31003KT 21/17 A2999 RMK A01 T02070167  RH  078%=      5-min Rain = 0
KCO2 251311Z 30003KT 21/17 A2999 RMK A01 T02080165  RH  076%=      5-min Rain = 0
KCO2 251312Z 30003KT 21/17 A2999 RMK A01 T02090165  RH  076%=      5-min Rain = 0
KCO2 251313Z 30003KT 21/16 A2999 RMK A01 T02090163  RH  075%=      5-min Rain = 0
KCO2 251314Z 32003KT 21/16 A2999 RMK A01 T02100164  RH  075%=      5-min Rain = 0
KCO2 251315Z 30002KT 21/17 A2999 RMK A01 T02100165  RH  075%=      5-min Rain = 0
KCO2 251316Z 30002KT 21/17 A2999 RMK A01 T02110165  RH  075%=      5-min Rain = 0
KCO2 251317Z 29002KT 21/17 A2999 RMK A01 T02120165  RH  075%=      5-min Rain = 0
KCO2 251318Z 29003KT 21/16 A2999 RMK A01 T02130163  RH  073%=      5-min Rain = 0
KCO2 251319Z 28002KT 21/16 A2999 RMK A01 T02130162  RH  073%=      5-min Rain = 0
KCO2 251320Z 29002KT 21/17 A2999 RMK A01 T02130165  RH  074%=      5-min Rain = 0
KCO2 251321Z 29003KT 21/16 A2999 RMK A01 T02140163  RH  073%=      5-min Rain = 0
KCO2 251322Z 30003KT 22/16 A2999 RMK A01 T02150163  RH  072%=      5-min Rain = 0
KCO2 251323Z 30004KT 22/16 A2999 RMK A01 T02150161  RH  072%=      5-min Rain = 0
KCO2 251324Z 30003KT 22/16 A2999 RMK A01 T02150161  RH  071%=      5-min Rain = 0
KCO2 251325Z 27001KT 22/16 A2999 RMK A01 T02160162  RH  071%=      5-min Rain = 0
KCO2 251326Z 26002KT 22/17 A2999 RMK A01 T02170165  RH  072%=      5-min Rain = 0
KCO2 251327Z 28003KT 22/17 A2999 RMK A01 T02180165  RH  071%=      5-min Rain = 0
KCO2 251328Z 27003KT 22/16 A2999 RMK A01 T02190159  RH  068%=      5-min Rain = 0
KCO2 251329Z 29002KT 22/16 A2999 RMK A01 T02200162  RH  070%=      5-min Rain = 0
KCO2 251330Z 28003KT 22/16 A2999 RMK A01 T02200161  RH  069%=      5-min Rain = 0
KCO2 251331Z 32002KT 22/16 A2999 RMK A01 T02210161  RH  069%=      5-min Rain = 0
KCO2 251332Z 30004KT 22/16 A2999 RMK A01 T02220164  RH  070%=      5-min Rain = 0
KCO2 251333Z 27004KT 22/16 A2999 RMK A01 T02230162  RH  069%=      5-min Rain = 0
KCO2 251334Z 26003KT 22/16 A2999 RMK A01 T02240161  RH  068%=      5-min Rain = 0
KCO2 251335Z 26002KT 22/16 A2999 RMK A01 T02240162  RH  068%=      5-min Rain = 0
KCO2 251336Z 25002KT 22/16 A2999 RMK A01 T02240164  RH  069%=      5-min Rain = 0
KCO2 251337Z 24002KT 22/16 A2999 RMK A01 T02240163  RH  068%=      5-min Rain = 0
KCO2 251338Z 26003KT 23/16 A2999 RMK A01 T02250164  RH  068%=      5-min Rain = 0
KCO2 251339Z 27004KT 23/17 A2999 RMK A01 T02260165  RH  068%=      5-min Rain = 0
KCO2 251340Z 27004KT 23/16 A2999 RMK A01 T02260164  RH  068%=      5-min Rain = 0
KCO2 251341Z 27004KT 23/16 A2999 RMK A01 T02260162  RH  067%=      5-min Rain = 0
KCO2 251342Z 27005KT 23/17 A2999 RMK A01 T02260165  RH  068%=      5-min Rain = 0
KCO2 251343Z 27005KT 23/16 A2999 RMK A01 T02270163  RH  067%=      5-min Rain = 0
KCO2 251344Z 27005KT 23/16 A2999 RMK A01 T02270162  RH  067%=      5-min Rain = 0
KCO2 251345Z 27005KT 23/16 A2999 RMK A01 T02260164  RH  068%=      5-min Rain = 0
KCO2 251346Z 28005KT 23/17 A2999 RMK A01 T02270166  RH  069%=      5-min Rain = 0
KCO2 251347Z 27007KT 23/16 A2999 RMK A01 T02280163  RH  067%=      5-min Rain = 0
KCO2 251348Z 26007KT 23/16 A2999 RMK A01 T02280162  RH  066%=      5-min Rain = 0
KCO2 251349Z 27006KT 23/16 A2999 RMK A01 T02280163  RH  067%=      5-min Rain = 0
KCO2 251350Z 28006KT 23/17 A2999 RMK A01 T02290165  RH  067%=      5-min Rain = 0
KCO2 251351Z 27004KT 23/17 A2999 RMK A01 T02300166  RH  067%=      5-min Rain = 0
KCO2 251352Z 28005KT 23/17 A2999 RMK A01 T02320168  RH  068%=      5-min Rain = 0
KCO2 251353Z 27004KT 23/17 A30 RMK A01 T02330168  RH  067%=      5-min Rain = 0
KCO2 251354Z 27005KT 23/17 A30 RMK A01 T02340170  RH  067%=      5-min Rain = 0
KCO2 251355Z 28005KT 24/17 A30 RMK A01 T02350166  RH  065%=      5-min Rain = 0
KCO2 251356Z 27008KT 24/17 A30 RMK A01 T02350165  RH  065%=      5-min Rain = 0
KCO2 251357Z 26007KT 24/16 A30 RMK A01 T02350162  RH  064%=      5-min Rain = 0
KCO2 251358Z 25006KT 23/16 A30 RMK A01 T02340164  RH  065%=      5-min Rain = 0
KCO2 251359Z 27007KT 23/17 A30 RMK A01 T02340166  RH  065%=      5-min Rain = 0
KCO2 251400Z 27007KT 24/17 A30 RMK A01 T02360167  RH  065%=      5-min Rain = 0
KCO2 251401Z 26007KT 24/17 A30 RMK A01 T02370167  RH  065%=      5-min Rain = 0
KCO2 251402Z 25006KT 24/17 A30 RMK A01 T02380168  RH  065%=      5-min Rain = 0
KCO2 251403Z 25008KT 24/17 A30 RMK A01 T02380167  RH  064%=      5-min Rain = 0
KCO2 251404Z 27008KT 24/17 A30 RMK A01 T02390167  RH  064%=      5-min Rain = 0
KCO2 251405Z 27006KT 24/17 A30 RMK A01 T02390166  RH  064%=      5-min Rain = 0
KCO2 251406Z 25007KT 24/17 A30 RMK A01 T02390167  RH  064%=      5-min Rain = 0
KCO2 251407Z 28007KT 24/17 A30 RMK A01 T02390167  RH  064%=      5-min Rain = 0
KCO2 251408Z 27009KT 24/17 A30 RMK A01 T02400167  RH  064%=      5-min Rain = 0
KCO2 251409Z 27010KT 24/17 A30 RMK A01 T02400165  RH  063%=      5-min Rain = 0
KCO2 251410Z 26009KT 24/17 A30 RMK A01 T02380165  RH  063%=      5-min Rain = 0
KCO2 251411Z 27007KT 24/17 A30 RMK A01 T02380168  RH  065%=      5-min Rain = 0
KCO2 251412Z 27009KT 24/17 A30 RMK A01 T02400168  RH  064%=      5-min Rain = 0
KCO2 251413Z 27009KT 24/17 A30 RMK A01 T02410168  RH  064%=      5-min Rain = 0
KCO2 251414Z 27008KT 24/17 A30 RMK A01 T02410167  RH  063%=      5-min Rain = 0
KCO2 251415Z 26007KT 24/17 A30 RMK A01 T02410169  RH  064%=      5-min Rain = 0
KCO2 251416Z 24008KT 24/17 A30 RMK A01 T02420170  RH  064%=      5-min Rain = 0
KCO2 251417Z 24008KT 24/17 A30 RMK A01 T02430169  RH  063%=      5-min Rain = 0
KCO2 251418Z 25007KT 24/17 A30 RMK A01 T02430169  RH  064%=      5-min Rain = 0
KCO2 251419Z 25007KT 24/17 A30 RMK A01 T02430169  RH  063%=      5-min Rain = 0
KCO2 251420Z 26007KT 24/17 A30 RMK A01 T02430170  RH  064%=      5-min Rain = 0
KCO2 251421Z 26009KT 24/17 A30 RMK A01 T02440170  RH  063%=      5-min Rain = 0
KCO2 251422Z 26009KT 25/17 A30 RMK A01 T02450170  RH  063%=      5-min Rain = 0
KCO2 251423Z 26009KT 25/17 A30 RMK A01 T02450169  RH  062%=      5-min Rain = 0
KCO2 251424Z 26008KT 24/17 A30 RMK A01 T02440169  RH  063%=      5-min Rain = 0
KCO2 251425Z 26006KT 24/17 A30 RMK A01 T02440170  RH  063%=      5-min Rain = 0
KCO2 251426Z 26008KT 25/17 A30 RMK A01 T02450170  RH  063%=      5-min Rain = 0
KCO2 251427Z 26008KT 25/17 A30 RMK A01 T02460172  RH  063%=      5-min Rain = 0
KCO2 251428Z 25009KT 25/17 A30 RMK A01 T02480171  RH  062%=      5-min Rain = 0
KCO2 251429Z 24010KT 25/17 A30 RMK A01 T02480171  RH  062%=      5-min Rain = 0
KCO2 251430Z 25009KT 25/17 A30 RMK A01 T02480171  RH  062%=      5-min Rain = 0
KCO2 251431Z 25008KT 25/17 A30 RMK A01 T02480172  RH  062%=      5-min Rain = 0
KCO2 251432Z 25009KT 25/17 A30 RMK A01 T02490173  RH  063%=      5-min Rain = 0
KCO2 251433Z 25007KT 25/17 A30 RMK A01 T02490173  RH  062%=      5-min Rain = 0
KCO2 251434Z 25008KT 25/17 A30 RMK A01 T02500172  RH  062%=      5-min Rain = 0
KCO2 251435Z 25007KT 25/17 A30 RMK A01 T02510173  RH  062%=      5-min Rain = 0
KCO2 251436Z 26009KT 25/17 A30 RMK A01 T02510174  RH  062%=      5-min Rain = 0
KCO2 251437Z 27007KT 25/17 A30 RMK A01 T02520174  RH  062%=      5-min Rain = 0
KCO2 251438Z 27008KT 25/17 A30 RMK A01 T02520174  RH  062%=      5-min Rain = 0
KCO2 251439Z 26009KT 25/17 A30 RMK A01 T02540173  RH  061%=      5-min Rain = 0
KCO2 251440Z 26009KT 25/17 A30 RMK A01 T02540173  RH  061%=      5-min Rain = 0
KCO2 251441Z 26008KT 25/17 A30 RMK A01 T02530172  RH  061%=      5-min Rain = 0
KCO2 251442Z 25008KT 25/17 A30 RMK A01 T02530174  RH  061%=      5-min Rain = 0
KCO2 251443Z 25008KT 25/17 A30 RMK A01 T02530172  RH  061%=      5-min Rain = 0
KCO2 251444Z 26006KT 25/17 A30 RMK A01 T02530170  RH  060%=      5-min Rain = 0
KCO2 251445Z 26008KT 25/17 A30 RMK A01 T02530174  RH  062%=      5-min Rain = 0
KCO2 251446Z 25009KT 26/17 A30 RMK A01 T02550173  RH  061%=      5-min Rain = 0
KCO2 251447Z 27009KT 26/17 A30 RMK A01 T02550172  RH  060%=      5-min Rain = 0
KCO2 251448Z 26009KT 26/17 A30 RMK A01 T02550173  RH  060%=      5-min Rain = 0
KCO2 251449Z 25007KT 26/18 A30 RMK A01 T02560175  RH  061%=      5-min Rain = 0
KCO2 251450Z 26006KT 26/18 A30 RMK A01 T02580175  RH  060%=      5-min Rain = 0
KCO2 251451Z 24004KT 26/18 A30 RMK A01 T02600177  RH  060%=      5-min Rain = 0
KCO2 251452Z 24006KT 26/18 A30 RMK A01 T02610175  RH  059%=      5-min Rain = 0
KCO2 251453Z 25008KT 26/18 A30 RMK A01 T02620175  RH  059%=      5-min Rain = 0
KCO2 251454Z 26007KT 26/18 A30 RMK A01 T02630175  RH  058%=      5-min Rain = 0
KCO2 251455Z 24007KT 26/18 A30 RMK A01 T02640175  RH  058%=      5-min Rain = 0
KCO2 251456Z 24006KT 27/18 A30 RMK A01 T02650176  RH  058%=      5-min Rain = 0
KCO2 251457Z 22009KT 27/18 A30 RMK A01 T02660176  RH  058%=      5-min Rain = 0
KCO2 251458Z 23007KT 27/18 A3001 RMK A01 T02660175  RH  057%=      5-min Rain = 0
KCO2 251459Z 24008KT 27/17 A3001 RMK A01 T02660173  RH  057%=      5-min Rain = 0
KCO2 251500Z 23007KT 27/17 A3001 RMK A01 T02660174  RH  057%=      5-min Rain = 0
KCO2 251501Z 24007KT 27/17 A3001 RMK A01 T02660174  RH  057%=      5-min Rain = 0
KCO2 251502Z 23008KT 27/18 A3001 RMK A01 T02670175  RH  057%=      5-min Rain = 0
KCO2 251503Z 22007KT 27/18 A3001 RMK A01 T02670176  RH  057%=      5-min Rain = 0
KCO2 251504Z 21008KT 27/17 A3001 RMK A01 T02680174  RH  056%=      5-min Rain = 0
KCO2 251505Z 24008KT 27/18 A3001 RMK A01 T02680175  RH  057%=      5-min Rain = 0
KCO2 251506Z 24007KT 27/17 A3001 RMK A01 T02670173  RH  056%=      5-min Rain = 0
KCO2 251507Z 26006KT 27/17 A3001 RMK A01 T02680174  RH  057%=      5-min Rain = 0
KCO2 251508Z 24006KT 27/18 A3001 RMK A01 T02690175  RH  056%=      5-min Rain = 0
KCO2 251509Z 21009KT 27/17 A3001 RMK A01 T02700174  RH  056%=      5-min Rain = 0
KCO2 251510Z 21009KT 27/17 A3001 RMK A01 T02700174  RH  056%=      5-min Rain = 0
KCO2 251511Z 22008KT 27/17 A3001 RMK A01 T02700173  RH  055%=      5-min Rain = 0
KCO2 251512Z 22008KT 27/17 A3001 RMK A01 T02700173  RH  055%=      5-min Rain = 0
KCO2 251513Z 24007KT 27/18 A3001 RMK A01 T02710175  RH  056%=      5-min Rain = 0
KCO2 251514Z 25007KT 27/17 A3001 RMK A01 T02710172  RH  055%=      5-min Rain = 0
KCO2 251515Z 25006KT 27/17 A3001 RMK A01 T02700171  RH  055%=      5-min Rain = 0
KCO2 251516Z 23006KT 27/17 A3001 RMK A01 T02700174  RH  055%=      5-min Rain = 0
KCO2 251517Z 22008KT 27/17 A3001 RMK A01 T02710174  RH  055%=      5-min Rain = 0
KCO2 251518Z 22009KT 27/17 A3001 RMK A01 T02720169  RH  053%=      5-min Rain = 0
KCO2 251519Z 21010KT 27/17 A3001 RMK A01 T02730170  RH  054%=      5-min Rain = 0
KCO2 251520Z 21007KT 27/17 A3001 RMK A01 T02740170  RH  053%=      5-min Rain = 0
KCO2 251521Z 22008KT 27/17 A3001 RMK A01 T02740171  RH  053%=      5-min Rain = 0
KCO2 251522Z 21010KT 28/17 A3001 RMK A01 T02760174  RH  054%=      5-min Rain = 0
KCO2 251523Z 22011KT 28/17 A3001 RMK A01 T02770172  RH  053%=      5-min Rain = 0
KCO2 251524Z 22008KT 28/17 A3001 RMK A01 T02770170  RH  052%=      5-min Rain = 0
KCO2 251525Z 22008KT 28/17 A3001 RMK A01 T02760173  RH  053%=      5-min Rain = 0
KCO2 251526Z 22007KT 28/17 A3001 RMK A01 T02770168  RH  052%=      5-min Rain = 0
KCO2 251527Z 22008KT 28/17 A3001 RMK A01 T02770171  RH  053%=      5-min Rain = 0
KCO2 251528Z 20010KT 28/17 A3001 RMK A01 T02780171  RH  052%=      5-min Rain = 0
KCO2 251529Z 23006KT 28/17 A3001 RMK A01 T02790171  RH  052%=      5-min Rain = 0
KCO2 251530Z 23006KT 28/17 A3001 RMK A01 T02790169  RH  051%=      5-min Rain = 0
KCO2 251531Z 23005KT 28/17 A3001 RMK A01 T02780170  RH  052%=      5-min Rain = 0
KCO2 251532Z 21005KT 28/17 A3001 RMK A01 T02790174  RH  053%=      5-min Rain = 0
KCO2 251533Z 25006KT 28/17 A3001 RMK A01 T02800174  RH  053%=      5-min Rain = 0
KCO2 251534Z 24007KT 28/18 A3001 RMK A01 T02820179  RH  054%=      5-min Rain = 0
KCO2 251535Z 24007KT 28/17 A3001 RMK A01 T02830172  RH  051%=      5-min Rain = 0
KCO2 251536Z 23005KT 28/17 A3001 RMK A01 T02800172  RH  052%=      5-min Rain = 0
KCO2 251537Z 22005KT 28/17 A3001 RMK A01 T02790174  RH  053%=      5-min Rain = 0
KCO2 251538Z 23005KT 28/17 A3001 RMK A01 T02800172  RH  052%=      5-min Rain = 0
KCO2 251539Z 22004KT 28/17 A3001 RMK A01 T02800171  RH  051%=      5-min Rain = 0
KCO2 251540Z 22008KT 28/17 A3001 RMK A01 T02800171  RH  051%=      5-min Rain = 0
KCO2 251541Z 21006KT 28/17 A3001 RMK A01 T02800170  RH  051%=      5-min Rain = 0
KCO2 251542Z 23007KT 28/18 A3001 RMK A01 T02810176  RH  053%=      5-min Rain = 0
KCO2 251543Z 23008KT 28/17 A3001 RMK A01 T02840173  RH  051%=      5-min Rain = 0
KCO2 251544Z 23007KT 28/17 A3001 RMK A01 T02840173  RH  051%=      5-min Rain = 0
KCO2 251545Z 23007KT 28/17 A3001 RMK A01 T02840173  RH  051%=      5-min Rain = 0
KCO2 251546Z 23007KT 29/17 A3001 RMK A01 T02850173  RH  051%=      5-min Rain = 0
KCO2 251547Z 20005KT 29/17 A3001 RMK A01 T02850172  RH  051%=      5-min Rain = 0
KCO2 251548Z 21007KT 29/18 A3001 RMK A01 T02850176  RH  052%=      5-min Rain = 0
KCO2 251549Z 21005KT 29/18 A3001 RMK A01 T02880179  RH  052%=      5-min Rain = 0
KCO2 251550Z 21005G10KT 29/18 A3001 RMK A01 T02900176  RH  050%=      5-min Rain = 0
KCO2 251551Z 22008KT 29/18 A3001 RMK A01 T02900178  RH  051%=      5-min Rain = 0
KCO2 251552Z 23005KT 29/18 A3001 RMK A01 T02910177  RH  050%=      5-min Rain = 0
KCO2 251553Z 20007KT 29/18 A3001 RMK A01 T02910181  RH  052%=      5-min Rain = 0
KCO2 251554Z 23006KT 29/18 A3001 RMK A01 T02920176  RH  049%=      5-min Rain = 0
KCO2 251555Z 21005KT 29/18 A3001 RMK A01 T02910175  RH  049%=      5-min Rain = 0
KCO2 251556Z 19005KT 29/18 A3001 RMK A01 T02910177  RH  050%=      5-min Rain = 0
KCO2 251557Z 22003KT 29/18 A3001 RMK A01 T02900178  RH  051%=      5-min Rain = 0
KCO2 251558Z 19004KT 29/18 A3001 RMK A01 T02910179  RH  051%=      5-min Rain = 0
KCO2 251559Z 20009KT 29/18 A3001 RMK A01 T02930177  RH  050%=      5-min Rain = 0
KCO2 251600Z 19010KT 29/17 A3001 RMK A01 T02920174  RH  049%=      5-min Rain = 0
KCO2 251601Z 19009KT 29/17 A3001 RMK A01 T02910174  RH  049%=      5-min Rain = 0
KCO2 251602Z 20006KT 29/18 A3001 RMK A01 T02890176  RH  050%=      5-min Rain = 0
KCO2 251603Z 19006KT 29/18 A3002 RMK A01 T02890175  RH  050%=      5-min Rain = 0
KCO2 251604Z 22004KT 29/18 A3002 RMK A01 T02900177  RH  050%=      5-min Rain = 0
KCO2 251605Z 20006KT 29/18 A3002 RMK A01 T02920181  RH  051%=      5-min Rain = 0
KCO2 251606Z 20005KT 30/18 A3002 RMK A01 T02950179  RH  050%=      5-min Rain = 0
KCO2 251607Z 21006KT 30/18 A3002 RMK A01 T02960175  RH  048%=      5-min Rain = 0
KCO2 251608Z 22005KT 29/17 A3002 RMK A01 T02940173  RH  048%=      5-min Rain = 0
KCO2 251609Z 23007KT 29/17 A3002 RMK A01 T02920174  RH  049%=      5-min Rain = 0
KCO2 251610Z 20006KT 29/18 A3002 RMK A01 T02930178  RH  050%=      5-min Rain = 0
KCO2 251611Z 17009KT 29/18 A3002 RMK A01 T02940178  RH  050%=      5-min Rain = 0
KCO2 251612Z 16009KT 30/18 A3002 RMK A01 T02950177  RH  049%=      5-min Rain = 0
KCO2 251613Z 17007KT 30/18 A3002 RMK A01 T02950176  RH  049%=      5-min Rain = 0
KCO2 251614Z 17007KT 30/18 A3002 RMK A01 T02950179  RH  049%=      5-min Rain = 0
KCO2 251615Z 19005KT 30/18 A3002 RMK A01 T02960178  RH  049%=      5-min Rain = 0
KCO2 251616Z 18005KT 30/18 A3002 RMK A01 T02960177  RH  049%=      5-min Rain = 0
KCO2 251617Z 17006KT 30/18 A3002 RMK A01 T02960176  RH  049%=      5-min Rain = 0
KCO2 251618Z 19004KT 30/18 A3002 RMK A01 T02970179  RH  049%=      5-min Rain = 0
KCO2 251619Z 21009KT 30/18 A3002 RMK A01 T02980177  RH  048%=      5-min Rain = 0
KCO2 251620Z 19008KT 30/18 A3002 RMK A01 T02960178  RH  049%=      5-min Rain = 0
KCO2 251621Z 18011KT 30/18 A3002 RMK A01 T02970176  RH  048%=      5-min Rain = 0
KCO2 251622Z 18010KT 30/17 A3002 RMK A01 T02960174  RH  048%=      5-min Rain = 0
KCO2 251623Z 17011KT 30/18 A3002 RMK A01 T02950175  RH  048%=      5-min Rain = 0
KCO2 251624Z 16009KT 30/17 A3002 RMK A01 T02950173  RH  048%=      5-min Rain = 0
KCO2 251625Z 17008KT 29/18 A3002 RMK A01 T02940176  RH  049%=      5-min Rain = 0
KCO2 251626Z 15005KT 30/18 A3002 RMK A01 T02950177  RH  049%=      5-min Rain = 0
KCO2 251627Z 15004KT 30/18 A3002 RMK A01 T02970176  RH  048%=      5-min Rain = 0
KCO2 251628Z 15006KT 30/18 A3002 RMK A01 T02980176  RH  048%=      5-min Rain = 0
KCO2 251629Z 16006KT 30/18 A3002 RMK A01 T02980177  RH  048%=      5-min Rain = 0
KCO2 251630Z 16008KT 30/18 A3002 RMK A01 T02990180  RH  049%=      5-min Rain = 0
KCO2 251631Z 16008KT 30/18 A3002 RMK A01 T03000178  RH  048%=      5-min Rain = 0
KCO2 251632Z 16004KT 30/18 A3002 RMK A01 T02990178  RH  048%=      5-min Rain = 0
KCO2 251633Z 13005KT 30/18 A3002 RMK A01 T02990180  RH  049%=      5-min Rain = 0
KCO2 251634Z 15009KT 30/18 A3002 RMK A01 T03000179  RH  048%=      5-min Rain = 0
KCO2 251635Z 15009KT 30/18 A3002 RMK A01 T03000180  RH  048%=      5-min Rain = 0
KCO2 251636Z 17008KT 30/18 A3002 RMK A01 T03000181  RH  049%=      5-min Rain = 0
KCO2 251637Z 16011KT 30/18 A3002 RMK A01 T03010179  RH  048%=      5-min Rain = 0
KCO2 251638Z 16008KT 30/18 A3002 RMK A01 T03000175  RH  047%=      5-min Rain = 0
KCO2 251639Z 17006KT 30/18 A3002 RMK A01 T02980182  RH  050%=      5-min Rain = 0
KCO2 251640Z 18006KT 30/18 A3002 RMK A01 T02990177  RH  048%=      5-min Rain = 0
KCO2 251641Z 16007KT 30/18 A3002 RMK A01 T03000182  RH  049%=      5-min Rain = 0
KCO2 251642Z 14011KT 30/18 A3002 RMK A01 T03010182  RH  049%=      5-min Rain = 0
KCO2 251643Z 15008KT 30/18 A3002 RMK A01 T03020177  RH  047%=      5-min Rain = 0
KCO2 251644Z 13005KT 30/18 A3002 RMK A01 T02990178  RH  048%=      5-min Rain = 0
KCO2 251645Z 14006KT 30/18 A3002 RMK A01 T02980176  RH  048%=      5-min Rain = 0
KCO2 251646Z 14007KT 30/18 A3002 RMK A01 T02980177  RH  048%=      5-min Rain = 0
KCO2 251647Z 16007KT 30/18 A3002 RMK A01 T02980181  RH  049%=      5-min Rain = 0
KCO2 251648Z 18008KT 30/18 A3003 RMK A01 T03000178  RH  048%=      5-min Rain = 0
KCO2 251649Z 18008KT 30/18 A3003 RMK A01 T03010183  RH  049%=      5-min Rain = 0
KCO2 251650Z 17009KT 30/18 A3003 RMK A01 T03040180  RH  048%=      5-min Rain = 0
KCO2 251651Z 18010KT 30/18 A3003 RMK A01 T03040178  RH  047%=      5-min Rain = 0
KCO2 251652Z 16009KT 30/18 A3003 RMK A01 T03020176  RH  047%=      5-min Rain = 0
KCO2 251653Z 16006KT 30/18 A3003 RMK A01 T03000178  RH  048%=      5-min Rain = 0
KCO2 251654Z 19009KT 30/18 A3003 RMK A01 T02990179  RH  048%=      5-min Rain = 0
KCO2 251655Z 18009G15KT 30/18 A3003 RMK A01 T03010179  RH  048%=      5-min Rain = 0
KCO2 251656Z 18010KT 30/18 A3003 RMK A01 T03010175  RH  047%=      5-min Rain = 0
KCO2 251657Z 18008KT 30/18 A3003 RMK A01 T02990175  RH  047%=      5-min Rain = 0
KCO2 251658Z 17006KT 30/18 A3003 RMK A01 T02980176  RH  048%=      5-min Rain = 0
KCO2 251659Z 15007KT 30/18 A3003 RMK A01 T02980180  RH  049%=      5-min Rain = 0
KCO2 251700Z 15008KT 30/18 A3002 RMK A01 T02980180  RH  049%=      5-min Rain = 0
KCO2 251701Z 14011KT 30/18 A3002 RMK A01 T02990182  RH  050%=      5-min Rain = 0
KCO2 251702Z 14011KT 30/18 A3003 RMK A01 T03000178  RH  048%=      5-min Rain = 0
KCO2 251703Z 15012KT 30/18 A3003 RMK A01 T03000179  RH  048%=      5-min Rain = 0
KCO2 251704Z 16011KT 30/18 A3002 RMK A01 T02990178  RH  048%=      5-min Rain = 0
KCO2 251705Z 15010KT 30/18 A3002 RMK A01 T02990181  RH  049%=      5-min Rain = 0
KCO2 251706Z 14009KT 30/18 A3002 RMK A01 T02990183  RH  050%=      5-min Rain = 0
KCO2 251707Z 13006KT 30/18 A3003 RMK A01 T03000182  RH  049%=      5-min Rain = 0
KCO2 251708Z 14011KT 30/19 A3002 RMK A01 T03010185  RH  050%=      5-min Rain = 0
KCO2 251709Z 13008KT 30/18 A3003 RMK A01 T03030182  RH  049%=      5-min Rain = 0
KCO2 251710Z 14005KT 30/18 A3003 RMK A01 T03020180  RH  048%=      5-min Rain = 0
KCO2 251711Z 14006KT 30/18 A3003 RMK A01 T03000178  RH  048%=      5-min Rain = 0
KCO2 251712Z 14009KT 30/18 A3003 RMK A01 T02980181  RH  049%=      5-min Rain = 0
KCO2 251713Z 14009KT 30/18 A3003 RMK A01 T02990181  RH  049%=      5-min Rain = 0
KCO2 251714Z 13008KT 30/18 A3003 RMK A01 T03000181  RH  049%=      5-min Rain = 0
KCO2 251715Z 13007KT 30/18 A3003 RMK A01 T03000180  RH  048%=      5-min Rain = 0
KCO2 251716Z 13007KT 30/18 A3002 RMK A01 T03010183  RH  049%=      5-min Rain = 0
KCO2 251717Z 15006KT 30/18 A3002 RMK A01 T03020184  RH  049%=      5-min Rain = 0
KCO2 251718Z 15007KT 30/18 A3002 RMK A01 T03040183  RH  049%=      5-min Rain = 0
KCO2 251719Z 16007KT 31/18 A3002 RMK A01 T03050182  RH  048%=      5-min Rain = 0
KCO2 251720Z 11006KT 31/19 A3002 RMK A01 T03050185  RH  049%=      5-min Rain = 0
KCO2 251721Z 13008KT 31/18 A3002 RMK A01 T03060183  RH  048%=      5-min Rain = 0
KCO2 251722Z 15010KT 31/18 A3002 RMK A01 T03060182  RH  048%=      5-min Rain = 0
KCO2 251723Z 16011KT 30/18 A3002 RMK A01 T03040184  RH  049%=      5-min Rain = 0
KCO2 251724Z 14007KT 30/19 A3002 RMK A01 T03040187  RH  050%=      5-min Rain = 0
KCO2 251725Z 14010KT 31/19 A3002 RMK A01 T03070187  RH  049%=      5-min Rain = 0
KCO2 251726Z 15009KT 31/18 A3002 RMK A01 T03100184  RH  047%=      5-min Rain = 0
KCO2 251727Z 14010KT 31/19 A3002 RMK A01 T03090187  RH  048%=      5-min Rain = 0
KCO2 251728Z 14008KT 31/19 A3002 RMK A01 T03090185  RH  048%=      5-min Rain = 0
KCO2 251729Z 13010KT 31/19 A3002 RMK A01 T03090186  RH  048%=      5-min Rain = 0
KCO2 251730Z 13007KT 31/18 A3002 RMK A01 T03080181  RH  047%=      5-min Rain = 0
KCO2 251731Z 12005KT 31/18 A3002 RMK A01 T03050178  RH  047%=      5-min Rain = 0
KCO2 251732Z 12010KT 30/18 A3002 RMK A01 T03030184  RH  049%=      5-min Rain = 0
KCO2 251733Z 11012KT 30/18 A3002 RMK A01 T03040181  RH  048%=      5-min Rain = 0
KCO2 251734Z 11011KT 30/18 A3002 RMK A01 T03040183  RH  048%=      5-min Rain = 0
KCO2 251735Z 11009KT 30/19 A3002 RMK A01 T03040185  RH  049%=      5-min Rain = 0
KCO2 251736Z 11010KT 31/18 A3002 RMK A01 T03050182  RH  048%=      5-min Rain = 0
KCO2 251737Z 13009KT 31/18 A3002 RMK A01 T03050183  RH  048%=      5-min Rain = 0
KCO2 251738Z 15010KT 31/18 A3002 RMK A01 T03050182  RH  048%=      5-min Rain = 0
KCO2 251739Z 13012KT 31/19 A3002 RMK A01 T03060186  RH  049%=      5-min Rain = 0
KCO2 251740Z 12012KT 31/18 A3002 RMK A01 T03090182  RH  047%=      5-min Rain = 0
KCO2 251741Z 12011KT 31/18 A3002 RMK A01 T03080181  RH  047%=      5-min Rain = 0
KCO2 251742Z 16008KT 31/19 A3002 RMK A01 T03070185  RH  048%=      5-min Rain = 0
KCO2 251743Z 17008KT 31/19 A3002 RMK A01 T03080185  RH  048%=      5-min Rain = 0
KCO2 251744Z 16007KT 31/19 A3002 RMK A01 T03100186  RH  047%=      5-min Rain = 0
KCO2 251745Z 13008KT 31/18 A3002 RMK A01 T03110183  RH  047%=      5-min Rain = 0
KCO2 251746Z 13007G12KT 31/18 A3002 RMK A01 T03100180  RH  046%=      5-min Rain = 0
KCO2 251747Z 12011KT 31/18 A3002 RMK A01 T03080182  RH  047%=      5-min Rain = 0
KCO2 251748Z 13010KT 31/18 A3002 RMK A01 T03070183  RH  048%=      5-min Rain = 0
KCO2 251749Z 14009KT 31/18 A3002 RMK A01 T03060183  RH  048%=      5-min Rain = 0
KCO2 251750Z 15012KT 31/19 A3002 RMK A01 T03080185  RH  048%=      5-min Rain = 0
KCO2 251751Z 15012KT 31/18 A3002 RMK A01 T03090183  RH  047%=      5-min Rain = 0
KCO2 251752Z 15009G14KT 31/19 A3002 RMK A01 T03100186  RH  047%=      5-min Rain = 0
KCO2 251753Z 13009KT 31/18 A3002 RMK A01 T03110183  RH  047%=      5-min Rain = 0
KCO2 251754Z 13007KT 31/19 A3002 RMK A01 T03120186  RH  047%=      5-min Rain = 0
KCO2 251755Z 12006KT 31/19 A3002 RMK A01 T03130186  RH  047%=      5-min Rain = 0
KCO2 251756Z 13011KT 31/19 A3002 RMK A01 T03130185  RH  047%=      5-min Rain = 0
KCO2 251757Z 13011KT 31/18 A3002 RMK A01 T03130180  RH  045%=      5-min Rain = 0
KCO2 251758Z 13011KT 31/18 A3002 RMK A01 T03100179  RH  046%=      5-min Rain = 0
KCO2 251759Z 13008KT 31/18 A3002 RMK A01 T03060178  RH  046%=      5-min Rain = 0
KCO2 251800Z 13005KT 31/18 A3002 RMK A01 T03060182  RH  048%=      5-min Rain = 0
KCO2 251801Z 12012G17KT 31/18 A3002 RMK A01 T03080183  RH  047%=      5-min Rain = 0
KCO2 251802Z 13012KT 31/18 A3002 RMK A01 T03090180  RH  046%=      5-min Rain = 0
KCO2 251803Z 12009KT 31/18 A3002 RMK A01 T03080181  RH  047%=      5-min Rain = 0
KCO2 251804Z 11008KT 31/18 A3002 RMK A01 T03080180  RH  046%=      5-min Rain = 0
KCO2 251805Z 12008KT 31/18 A3002 RMK A01 T03080184  RH  048%=      5-min Rain = 0
KCO2 251806Z 14008KT 31/18 A3002 RMK A01 T03070182  RH  047%=      5-min Rain = 0
KCO2 251807Z 11006KT 31/18 A3002 RMK A01 T03090182  RH  047%=      5-min Rain = 0
KCO2 251808Z 12006G12KT 31/18 A3002 RMK A01 T03090184  RH  047%=      5-min Rain = 0
KCO2 251809Z 12009KT 31/19 A3002 RMK A01 T03110186  RH  047%=      5-min Rain = 0
KCO2 251810Z 14012KT 31/18 A3002 RMK A01 T03140183  RH  046%=      5-min Rain = 0
KCO2 251811Z 15009KT 31/18 A3002 RMK A01 T03140184  RH  046%=      5-min Rain = 0
KCO2 251812Z 15012KT 31/18 A3002 RMK A01 T03130184  RH  046%=      5-min Rain = 0
KCO2 251813Z 15012KT 31/18 A3002 RMK A01 T03130181  RH  045%=      5-min Rain = 0
KCO2 251814Z 16011KT 31/18 A3002 RMK A01 T03120184  RH  046%=      5-min Rain = 0
KCO2 251815Z 15009KT 31/18 A3002 RMK A01 T03110183  RH  046%=      5-min Rain = 0
KCO2 251816Z 13009KT 31/18 A3002 RMK A01 T03110181  RH  046%=      5-min Rain = 0
KCO2 251817Z 13008KT 31/18 A3002 RMK A01 T03100182  RH  046%=      5-min Rain = 0
KCO2 251818Z 13011KT 31/19 A3002 RMK A01 T03100185  RH  048%=      5-min Rain = 0
KCO2 251819Z 14012KT 31/19 A3002 RMK A01 T03120185  RH  047%=      5-min Rain = 0
KCO2 251820Z 14012KT 31/18 A3002 RMK A01 T03140182  RH  045%=      5-min Rain = 0
KCO2 251821Z 14010KT 31/18 A3002 RMK A01 T03120182  RH  046%=      5-min Rain = 0
KCO2 251822Z 14008KT 31/19 A3002 RMK A01 T03110185  RH  047%=      5-min Rain = 0
KCO2 251823Z 14009KT 31/19 A3002 RMK A01 T03130185  RH  047%=      5-min Rain = 0
KCO2 251824Z 13011KT 32/19 A3002 RMK A01 T03150187  RH  047%=      5-min Rain = 0
KCO2 251825Z 14014KT 32/19 A3002 RMK A01 T03160186  RH  046%=      5-min Rain = 0
KCO2 251826Z 15012KT 32/19 A3002 RMK A01 T03150185  RH  046%=      5-min Rain = 0
KCO2 251827Z 15012KT 31/19 A3002 RMK A01 T03140188  RH  047%=      5-min Rain = 0
KCO2 251828Z 14012KT 31/19 A3002 RMK A01 T03140185  RH  046%=      5-min Rain = 0
KCO2 251829Z 14012KT 31/18 A3002 RMK A01 T03130184  RH  046%=      5-min Rain = 0
KCO2 251830Z 14011KT 31/18 A3002 RMK A01 T03120183  RH  046%=      5-min Rain = 0
KCO2 251831Z 14012KT 31/18 A3002 RMK A01 T03100184  RH  047%=      5-min Rain = 0
KCO2 251832Z 16011KT 31/19 A3002 RMK A01 T03100187  RH  048%=      5-min Rain = 0
KCO2 251833Z 15011KT 31/19 A3002 RMK A01 T03110187  RH  048%=      5-min Rain = 0
KCO2 251834Z 14012KT 31/19 A3002 RMK A01 T03110186  RH  047%=      5-min Rain = 0
KCO2 251835Z 13012KT 31/19 A3002 RMK A01 T03110186  RH  047%=      5-min Rain = 0
KCO2 251836Z 14013KT 31/19 A3002 RMK A01 T03110185  RH  047%=      5-min Rain = 0
KCO2 251837Z 14013KT 31/18 A3002 RMK A01 T03110184  RH  047%=      5-min Rain = 0
KCO2 251838Z 13010G15KT 31/18 A3002 RMK A01 T03090182  RH  047%=      5-min Rain = 0
KCO2 251839Z 12008G15KT 31/19 A3001 RMK A01 T03070190  RH  050%=      5-min Rain = 0
KCO2 251840Z 14012KT 31/19 A3001 RMK A01 T03100185  RH  047%=      5-min Rain = 0
KCO2 251841Z 16010KT 31/19 A3001 RMK A01 T03110185  RH  047%=      5-min Rain = 0
KCO2 251842Z 16011KT 31/19 A3001 RMK A01 T03100186  RH  048%=      5-min Rain = 0
KCO2 251843Z 17011KT 31/19 A3001 RMK A01 T03100188  RH  048%=      5-min Rain = 0
KCO2 251844Z 16011KT 31/19 A3001 RMK A01 T03130186  RH  047%=      5-min Rain = 0
KCO2 251845Z 15011KT 31/19 A3002 RMK A01 T03130188  RH  047%=      5-min Rain = 0
KCO2 251846Z 16010KT 31/19 A3001 RMK A01 T03140186  RH  047%=      5-min Rain = 0
KCO2 251847Z 16010KT 31/19 A3001 RMK A01 T03140187  RH  047%=      5-min Rain = 0
KCO2 251848Z 15011KT 31/19 A3001 RMK A01 T03120185  RH  047%=      5-min Rain = 0
KCO2 251849Z 12011KT 31/19 A3001 RMK A01 T03110185  RH  047%=      5-min Rain = 0
KCO2 251850Z 13010KT 31/19 A3001 RMK A01 T03100185  RH  047%=      5-min Rain = 0
KCO2 251851Z 12010KT 31/18 A3001 RMK A01 T03110184  RH  047%=      5-min Rain = 0
KCO2 251852Z 15008KT 31/19 A3001 RMK A01 T03110186  RH  047%=      5-min Rain = 0
KCO2 251853Z 16010KT 31/19 A3001 RMK A01 T03120186  RH  047%=      5-min Rain = 0
KCO2 251854Z 17010KT 31/18 A3001 RMK A01 T03120182  RH  046%=      5-min Rain = 0
KCO2 251855Z 16009KT 31/18 A3001 RMK A01 T03110183  RH  047%=      5-min Rain = 0
KCO2 251856Z 15010KT 31/18 A3001 RMK A01 T03110184  RH  047%=      5-min Rain = 0
KCO2 251857Z 16007KT 31/18 A3001 RMK A01 T03100181  RH  046%=      5-min Rain = 0
KCO2 251858Z 14006KT 31/18 A3001 RMK A01 T03090181  RH  046%=      5-min Rain = 0
KCO2 251859Z 14009KT 31/19 A3001 RMK A01 T03090187  RH  048%=      5-min Rain = 0
KCO2 251900Z 12008KT 31/19 A3001 RMK A01 T03110188  RH  048%=      5-min Rain = 0
KCO2 251901Z 13010KT 31/18 A3001 RMK A01 T03140184  RH  046%=      5-min Rain = 0
KCO2 251902Z 13009KT 31/18 A3001 RMK A01 T03120183  RH  046%=      5-min Rain = 0
KCO2 251903Z 14007KT 31/19 A3001 RMK A01 T03110188  RH  048%=      5-min Rain = 0
KCO2 251904Z 15010KT 31/19 A3001 RMK A01 T03140188  RH  047%=      5-min Rain = 0
KCO2 251905Z 16011KT 32/19 A3001 RMK A01 T03160188  RH  047%=      5-min Rain = 0
KCO2 251906Z 15010KT 32/19 A3001 RMK A01 T03170187  RH  046%=      5-min Rain = 0
KCO2 251907Z 14012KT 32/19 A3001 RMK A01 T03170186  RH  046%=      5-min Rain = 0
KCO2 251908Z 14011KT 32/19 A3001 RMK A01 T03160185  RH  046%=      5-min Rain = 0
KCO2 251909Z 18011KT 31/19 A3001 RMK A01 T03140185  RH  046%=      5-min Rain = 0
KCO2 251910Z 15010KT 31/18 A3001 RMK A01 T03140184  RH  046%=      5-min Rain = 0
KCO2 251911Z 16009KT 31/18 A3001 RMK A01 T03130184  RH  046%=      5-min Rain = 0
KCO2 251912Z 17008KT 31/18 A3001 RMK A01 T03130183  RH  046%=      5-min Rain = 0
KCO2 251913Z 15009G14KT 31/19 A3001 RMK A01 T03130185  RH  047%=      5-min Rain = 0
KCO2 251914Z 16010KT 31/18 A3001 RMK A01 T03130184  RH  046%=      5-min Rain = 0
KCO2 251915Z 15007KT 31/18 A3001 RMK A01 T03130184  RH  046%=      5-min Rain = 0
KCO2 251916Z 15009KT 31/18 A3001 RMK A01 T03130184  RH  046%=      5-min Rain = 0
KCO2 251917Z 16011KT 31/18 A3001 RMK A01 T03140184  RH  046%=      5-min Rain = 0
KCO2 251918Z 15008KT 31/18 A3001 RMK A01 T03130184  RH  046%=      5-min Rain = 0
KCO2 251919Z 15007KT 31/18 A3001 RMK A01 T03140184  RH  046%=      5-min Rain = 0
KCO2 251920Z 15007KT 31/18 A3001 RMK A01 T03140183  RH  046%=      5-min Rain = 0
KCO2 251921Z 16008KT 32/19 A30 RMK A01 T03150189  RH  047%=      5-min Rain = 0
KCO2 251922Z 17011KT 32/19 A3001 RMK A01 T03190187  RH  046%=      5-min Rain = 0
KCO2 251923Z 17011KT 32/18 A3001 RMK A01 T03190183  RH  044%=      5-min Rain = 0
KCO2 251924Z 16011KT 32/18 A3001 RMK A01 T03160183  RH  045%=      5-min Rain = 0
KCO2 251925Z 16005G11KT 32/18 A3001 RMK A01 T03160181  RH  045%=      5-min Rain = 0
KCO2 251926Z 14005KT 31/18 A30 RMK A01 T03140182  RH  045%=      5-min Rain = 0
KCO2 251927Z 18010KT 31/18 A30 RMK A01 T03130183  RH  046%=      5-min Rain = 0
KCO2 251928Z 17010KT 31/18 A30 RMK A01 T03130183  RH  046%=      5-min Rain = 0
KCO2 251929Z 18012G18KT 31/18 A30 RMK A01 T03130183  RH  046%=      5-min Rain = 0
KCO2 251930Z 17011KT 31/18 A30 RMK A01 T03140184  RH  046%=      5-min Rain = 0
KCO2 251931Z 16008KT 32/19 A30 RMK A01 T03160186  RH  046%=      5-min Rain = 0
KCO2 251932Z 15008KT 32/19 A30 RMK A01 T03190188  RH  046%=      5-min Rain = 0
KCO2 251933Z 14007KT 32/19 A30 RMK A01 T03190185  RH  045%=      5-min Rain = 0
KCO2 251934Z 15006KT 32/18 A30 RMK A01 T03180183  RH  045%=      5-min Rain = 0
KCO2 251935Z 16005KT 32/19 A30 RMK A01 T03170186  RH  046%=      5-min Rain = 0
KCO2 251936Z 16009KT 32/19 A30 RMK A01 T03160185  RH  046%=      5-min Rain = 0
KCO2 251937Z 15011G16KT 32/19 A30 RMK A01 T03170188  RH  046%=      5-min Rain = 0
KCO2 251938Z 15011KT 32/18 A30 RMK A01 T03190184  RH  045%=      5-min Rain = 0
KCO2 251939Z 16010KT 32/18 A30 RMK A01 T03180184  RH  045%=      5-min Rain = 0
KCO2 251940Z 15009KT 32/19 A30 RMK A01 T03180188  RH  046%=      5-min Rain = 0
KCO2 251941Z 16010KT 32/19 A30 RMK A01 T03200186  RH  045%=      5-min Rain = 0
KCO2 251942Z 18012KT 32/19 A30 RMK A01 T03210186  RH  045%=      5-min Rain = 0
KCO2 251943Z 16011KT 32/19 A30 RMK A01 T03210186  RH  045%=      5-min Rain = 0
KCO2 251944Z 17006KT 32/19 A30 RMK A01 T03210189  RH  046%=      5-min Rain = 0
KCO2 251945Z 16008KT 32/19 A30 RMK A01 T03240189  RH  045%=      5-min Rain = 0
KCO2 251946Z 16007KT 32/18 A30 RMK A01 T03240184  RH  043%=      5-min Rain = 0
KCO2 251947Z 17010KT 32/19 A30 RMK A01 T03220189  RH  045%=      5-min Rain = 0
KCO2 251948Z 18010KT 32/19 A30 RMK A01 T03240186  RH  044%=      5-min Rain = 0
KCO2 251949Z 16009KT 32/19 A30 RMK A01 T03240187  RH  044%=      5-min Rain = 0
KCO2 251950Z 18009KT 32/19 A30 RMK A01 T03240189  RH  045%=      5-min Rain = 0
KCO2 251951Z 15008KT 33/19 A30 RMK A01 T03250185  RH  044%=      5-min Rain = 0
KCO2 251952Z 16006KT 32/18 A30 RMK A01 T03230182  RH  043%=      5-min Rain = 0
KCO2 251953Z 16009KT 32/18 A30 RMK A01 T03200182  RH  044%=      5-min Rain = 0
KCO2 251954Z 16010KT 32/18 A30 RMK A01 T03190184  RH  045%=      5-min Rain = 0
KCO2 251955Z 15011KT 32/18 A30 RMK A01 T03190182  RH  044%=      5-min Rain = 0
KCO2 251956Z 14006KT 32/18 A30 RMK A01 T03180182  RH  044%=      5-min Rain = 0
KCO2 251957Z 15007G15KT 32/18 A30 RMK A01 T03160180  RH  044%=      5-min Rain = 0
KCO2 251958Z 17010KT 32/19 A30 RMK A01 T03160185  RH  046%=      5-min Rain = 0
KCO2 251959Z 16007KT 32/19 A30 RMK A01 T03200186  RH  045%=      5-min Rain = 0
KCO2 252000Z 17009KT 32/18 A2999 RMK A01 T03210181  RH  043%=      5-min Rain = 0
KCO2 252001Z 17010KT 32/19 A2999 RMK A01 T03200186  RH  045%=      5-min Rain = 0
KCO2 252002Z 16011KT 32/19 A2999 RMK A01 T03210186  RH  045%=      5-min Rain = 0
KCO2 252003Z 17013KT 32/18 A30 RMK A01 T03210184  RH  044%=      5-min Rain = 0
KCO2 252004Z 17011KT 32/18 A30 RMK A01 T03200180  RH  043%=      5-min Rain = 0
KCO2 252005Z 17009KT 32/18 A30 RMK A01 T03170182  RH  045%=      5-min Rain = 0
KCO2 252006Z 15008KT 32/18 A2999 RMK A01 T03160181  RH  045%=      5-min Rain = 0
KCO2 252007Z 17011KT 32/19 A2999 RMK A01 T03170187  RH  046%=      5-min Rain = 0
KCO2 252008Z 17012KT 32/18 A2999 RMK A01 T03190184  RH  045%=      5-min Rain = 0
KCO2 252009Z 15009KT 32/19 A2999 RMK A01 T03200185  RH  045%=      5-min Rain = 0
KCO2 252010Z 17008KT 32/18 A2999 RMK A01 T03210184  RH  044%=      5-min Rain = 0
KCO2 252011Z 14006KT 32/19 A2999 RMK A01 T03210185  RH  044%=      5-min Rain = 0
KCO2 252012Z 15010KT 32/18 A2999 RMK A01 T03210182  RH  044%=      5-min Rain = 0
KCO2 252013Z 16009KT 32/18 A2999 RMK A01 T03200181  RH  044%=      5-min Rain = 0
KCO2 252014Z 16008KT 32/18 A2999 RMK A01 T03190183  RH  045%=      5-min Rain = 0
KCO2 252015Z 16010KT 32/18 A2999 RMK A01 T03190182  RH  044%=      5-min Rain = 0
KCO2 252016Z 16011KT 32/18 A2999 RMK A01 T03180184  RH  045%=      5-min Rain = 0
KCO2 252017Z 18010KT 32/18 A2999 RMK A01 T03190180  RH  044%=      5-min Rain = 0
KCO2 252018Z 18010KT 32/18 A2999 RMK A01 T03180183  RH  045%=      5-min Rain = 0
KCO2 252019Z 18009KT 32/18 A2999 RMK A01 T03190180  RH  044%=      5-min Rain = 0
KCO2 252020Z 15008KT 32/18 A2999 RMK A01 T03190182  RH  044%=      5-min Rain = 0
KCO2 252021Z 14009KT 32/18 A2999 RMK A01 T03190183  RH  044%=      5-min Rain = 0
KCO2 252022Z 14011KT 32/18 A2999 RMK A01 T03210182  RH  044%=      5-min Rain = 0
KCO2 252023Z 15011KT 32/18 A2999 RMK A01 T03210181  RH  043%=      5-min Rain = 0
KCO2 252024Z 15010KT 32/18 A2999 RMK A01 T03200181  RH  044%=      5-min Rain = 0
KCO2 252025Z 15010KT 32/18 A2999 RMK A01 T03180182  RH  044%=      5-min Rain = 0
KCO2 252026Z 15010KT 32/18 A2999 RMK A01 T03180184  RH  045%=      5-min Rain = 0
KCO2 252027Z 16011KT 32/19 A2999 RMK A01 T03180185  RH  045%=      5-min Rain = 0
KCO2 252028Z 16011KT 32/19 A2999 RMK A01 T03200185  RH  045%=      5-min Rain = 0
KCO2 252029Z 15012KT 32/19 A2999 RMK A01 T03220186  RH  045%=      5-min Rain = 0
KCO2 252030Z 15011KT 32/19 A2999 RMK A01 T03220186  RH  044%=      5-min Rain = 0
KCO2 252031Z 15008KT 32/18 A2999 RMK A01 T03210182  RH  044%=      5-min Rain = 0
KCO2 252032Z 12007KT 32/18 A2999 RMK A01 T03180184  RH  045%=      5-min Rain = 0
KCO2 252033Z 15007KT 32/19 A2999 RMK A01 T03190186  RH  045%=      5-min Rain = 0
KCO2 252034Z 17008G13KT 32/19 A2998 RMK A01 T03200185  RH  045%=      5-min Rain = 0
KCO2 252035Z 15010KT 32/19 A2998 RMK A01 T03210188  RH  045%=      5-min Rain = 0
KCO2 252036Z 14010KT 33/19 A2998 RMK A01 T03250191  RH  045%=      5-min Rain = 0
KCO2 252037Z 14011KT 33/19 A2998 RMK A01 T03270188  RH  044%=      5-min Rain = 0
KCO2 252038Z 16010KT 33/19 A2998 RMK A01 T03270188  RH  044%=      5-min Rain = 0
KCO2 252039Z 17008KT 33/19 A2998 RMK A01 T03260188  RH  044%=      5-min Rain = 0
KCO2 252040Z 14011KT 33/19 A2998 RMK A01 T03260189  RH  044%=      5-min Rain = 0
KCO2 252041Z 13012KT 33/19 A2998 RMK A01 T03260185  RH  043%=      5-min Rain = 0
KCO2 252042Z 14011KT 33/19 A2998 RMK A01 T03250187  RH  044%=      5-min Rain = 0
KCO2 252043Z 14009KT 33/19 A2998 RMK A01 T03250187  RH  044%=      5-min Rain = 0
KCO2 252044Z 17007KT 33/19 A2998 RMK A01 T03260188  RH  044%=      5-min Rain = 0
KCO2 252045Z 15008KT 33/19 A2998 RMK A01 T03250187  RH  044%=      5-min Rain = 0
KCO2 252046Z 13010KT 33/19 A2998 RMK A01 T03260190  RH  045%=      5-min Rain = 0
KCO2 252047Z 14007KT 33/18 A2998 RMK A01 T03260183  RH  043%=      5-min Rain = 0
KCO2 252048Z 15007KT 32/18 A2998 RMK A01 T03220184  RH  044%=      5-min Rain = 0
KCO2 252049Z 14012KT 32/19 A2998 RMK A01 T03210187  RH  045%=      5-min Rain = 0
KCO2 252050Z 15011KT 32/19 A2998 RMK A01 T03220187  RH  045%=      5-min Rain = 0
KCO2 252051Z 17010KT 32/19 A2998 RMK A01 T03240186  RH  044%=      5-min Rain = 0
KCO2 252052Z 17009KT 33/19 A2998 RMK A01 T03250186  RH  044%=      5-min Rain = 0
KCO2 252053Z 17009KT 33/19 A2998 RMK A01 T03250189  RH  045%=      5-min Rain = 0
KCO2 252054Z 16011KT 33/19 A2998 RMK A01 T03260186  RH  044%=      5-min Rain = 0
KCO2 252055Z 18008KT 33/18 A2998 RMK A01 T03250184  RH  043%=      5-min Rain = 0
KCO2 252056Z 16007KT 32/19 A2998 RMK A01 T03230185  RH  044%=      5-min Rain = 0
KCO2 252057Z 15006KT 32/19 A2998 RMK A01 T03240187  RH  044%=      5-min Rain = 0
KCO2 252058Z 14008KT 32/19 A2998 RMK A01 T03240187  RH  044%=      5-min Rain = 0
KCO2 252059Z 16008KT 32/19 A2998 RMK A01 T03240185  RH  044%=      5-min Rain = 0
KCO2 252100Z 13009KT 32/19 A2998 RMK A01 T03240189  RH  045%=      5-min Rain = 0
KCO2 252101Z 13012KT 33/19 A2998 RMK A01 T03260186  RH  043%=      5-min Rain = 0
KCO2 252102Z 13009KT 33/18 A2998 RMK A01 T03260184  RH  043%=      5-min Rain = 0
KCO2 252103Z 13007KT 33/19 A2998 RMK A01 T03250188  RH  044%=      5-min Rain = 0
KCO2 252104Z 13011KT 33/19 A2998 RMK A01 T03260188  RH  044%=      5-min Rain = 0
KCO2 252105Z 14013KT 33/19 A2998 RMK A01 T03260187  RH  044%=      5-min Rain = 0
KCO2 252106Z 13011KT 33/19 A2998 RMK A01 T03250186  RH  044%=      5-min Rain = 0
KCO2 252107Z 14008KT 32/19 A2998 RMK A01 T03240186  RH  044%=      5-min Rain = 0
KCO2 252108Z 16008KT 32/19 A2997 RMK A01 T03240187  RH  044%=      5-min Rain = 0
KCO2 252109Z 17010KT 33/19 A2997 RMK A01 T03250185  RH  043%=      5-min Rain = 0
KCO2 252110Z 17011KT 33/19 A2997 RMK A01 T03250188  RH  044%=      5-min Rain = 0
KCO2 252111Z 17009KT 33/19 A2997 RMK A01 T03270185  RH  043%=      5-min Rain = 0
KCO2 252112Z 16009KT 33/19 A2997 RMK A01 T03280186  RH  043%=      5-min Rain = 0
KCO2 252113Z 15007KT 33/18 A2997 RMK A01 T03270184  RH  043%=      5-min Rain = 0
KCO2 252114Z 16009KT 33/18 A2997 RMK A01 T03260182  RH  043%=      5-min Rain = 0
KCO2 252115Z 17008KT 32/18 A2997 RMK A01 T03230179  RH  042%=      5-min Rain = 0
KCO2 252116Z 17011KT 32/19 A2997 RMK A01 T03230185  RH  044%=      5-min Rain = 0
KCO2 252117Z 17012KT 32/18 A2997 RMK A01 T03240184  RH  044%=      5-min Rain = 0
KCO2 252118Z 15011KT 33/19 A2997 RMK A01 T03250186  RH  044%=      5-min Rain = 0
KCO2 252119Z 14012KT 32/19 A2997 RMK A01 T03240185  RH  044%=      5-min Rain = 0
KCO2 252120Z 15012KT 32/19 A2997 RMK A01 T03240186  RH  044%=      5-min Rain = 0
KCO2 252121Z 15011KT 33/19 A2997 RMK A01 T03250185  RH  044%=      5-min Rain = 0
KCO2 252122Z 15012KT 33/18 A2997 RMK A01 T03250182  RH  043%=      5-min Rain = 0
KCO2 252123Z 14009KT 32/18 A2997 RMK A01 T03240183  RH  043%=      5-min Rain = 0
KCO2 252124Z 15010KT 32/18 A2997 RMK A01 T03240183  RH  043%=      5-min Rain = 0
KCO2 252125Z 15011KT 33/18 A2997 RMK A01 T03250181  RH  043%=      5-min Rain = 0
KCO2 252126Z 15009KT 32/18 A2997 RMK A01 T03240178  RH  042%=      5-min Rain = 0
KCO2 252127Z 15007KT 32/18 A2997 RMK A01 T03220177  RH  042%=      5-min Rain = 0
KCO2 252128Z 13007KT 32/18 A2997 RMK A01 T03210180  RH  043%=      5-min Rain = 0
KCO2 252129Z 15007KT 32/18 A2997 RMK A01 T03210181  RH  043%=      5-min Rain = 0
KCO2 252130Z 17008KT 32/19 A2997 RMK A01 T03230185  RH  044%=      5-min Rain = 0
KCO2 252131Z 13009KT 33/19 A2997 RMK A01 T03260186  RH  044%=      5-min Rain = 0
KCO2 252132Z 13008KT 33/18 A2997 RMK A01 T03270182  RH  042%=      5-min Rain = 0
KCO2 252133Z 13008KT 33/18 A2997 RMK A01 T03250181  RH  042%=      5-min Rain = 0
KCO2 252134Z 13009KT 32/18 A2997 RMK A01 T03230181  RH  043%=      5-min Rain = 0
KCO2 252135Z 13010KT 32/18 A2997 RMK A01 T03230183  RH  043%=      5-min Rain = 0
KCO2 252136Z 15010KT 33/18 A2997 RMK A01 T03260181  RH  042%=      5-min Rain = 0
KCO2 252137Z 15009KT 33/18 A2997 RMK A01 T03260184  RH  043%=      5-min Rain = 0
KCO2 252138Z 16010KT 33/18 A2997 RMK A01 T03270183  RH  043%=      5-min Rain = 0
KCO2 252139Z 16012KT 33/18 A2997 RMK A01 T03270182  RH  042%=      5-min Rain = 0
KCO2 252140Z 14011KT 33/18 A2997 RMK A01 T03280179  RH  041%=      5-min Rain = 0
KCO2 252141Z 15009KT 33/18 A2997 RMK A01 T03260177  RH  041%=      5-min Rain = 0
KCO2 252142Z 16007KT 33/18 A2997 RMK A01 T03250183  RH  043%=      5-min Rain = 0
KCO2 252143Z 15011KT 33/19 A2997 RMK A01 T03260186  RH  043%=      5-min Rain = 0
KCO2 252144Z 16010KT 33/19 A2997 RMK A01 T03270185  RH  043%=      5-min Rain = 0
KCO2 252145Z 15009KT 33/18 A2997 RMK A01 T03270184  RH  043%=      5-min Rain = 0
KCO2 252146Z 15009KT 33/18 A2997 RMK A01 T03270180  RH  042%=      5-min Rain = 0
KCO2 252147Z 13009KT 33/18 A2997 RMK A01 T03270181  RH  042%=      5-min Rain = 0
KCO2 252148Z 16007KT 33/18 A2997 RMK A01 T03270183  RH  042%=      5-min Rain = 0
KCO2 252149Z 17011KT 33/18 A2997 RMK A01 T03280182  RH  042%=      5-min Rain = 0
KCO2 252150Z 15011KT 33/18 A2997 RMK A01 T03280181  RH  042%=      5-min Rain = 0
KCO2 252151Z 16009KT 33/18 A2997 RMK A01 T03270182  RH  042%=      5-min Rain = 0
KCO2 252152Z 16009KT 33/18 A2997 RMK A01 T03280184  RH  043%=      5-min Rain = 0
KCO2 252153Z 17009KT 33/18 A2996 RMK A01 T03290180  RH  041%=      5-min Rain = 0
KCO2 252154Z 19010KT 33/18 A2996 RMK A01 T03280179  RH  041%=      5-min Rain = 0
KCO2 252155Z 19010KT 33/18 A2996 RMK A01 T03270179  RH  041%=      5-min Rain = 0
KCO2 252156Z 15012KT 33/18 A2996 RMK A01 T03270180  RH  042%=      5-min Rain = 0
KCO2 252157Z 14010KT 33/18 A2996 RMK A01 T03280179  RH  041%=      5-min Rain = 0
KCO2 252158Z 14012KT 33/18 A2996 RMK A01 T03280180  RH  042%=      5-min Rain = 0
KCO2 252159Z 14010G15KT 33/18 A2996 RMK A01 T03270180  RH  042%=      5-min Rain = 0
KCO2 252200Z 14009KT 33/18 A2996 RMK A01 T03250182  RH  043%=      5-min Rain = 0
KCO2 252201Z 13009KT 33/18 A2996 RMK A01 T03260184  RH  043%=      5-min Rain = 0
KCO2 252202Z 13007KT 33/18 A2996 RMK A01 T03270182  RH  042%=      5-min Rain = 0
KCO2 252203Z 14006KT 33/18 A2996 RMK A01 T03260184  RH  043%=      5-min Rain = 0
KCO2 252204Z 15007KT 33/19 A2996 RMK A01 T03270188  RH  044%=      5-min Rain = 0
KCO2 252205Z 16008KT 33/19 A2996 RMK A01 T03290185  RH  042%=      5-min Rain = 0
KCO2 252206Z 16008KT 33/19 A2996 RMK A01 T03300188  RH  043%=      5-min Rain = 0
KCO2 252207Z 16011KT 33/19 A2996 RMK A01 T03300186  RH  042%=      5-min Rain = 0
KCO2 252208Z 16008KT 33/19 A2996 RMK A01 T03310186  RH  042%=      5-min Rain = 0
KCO2 252209Z 16008KT 33/19 A2996 RMK A01 T03310186  RH  042%=      5-min Rain = 0
KCO2 252210Z 15009KT 33/19 A2996 RMK A01 T03320186  RH  042%=      5-min Rain = 0
KCO2 252211Z 15011KT 33/19 A2996 RMK A01 T03320185  RH  042%=      5-min Rain = 0
KCO2 252212Z 15009KT 33/18 A2996 RMK A01 T03310183  RH  042%=      5-min Rain = 0
KCO2 252213Z 17009KT 33/19 A2996 RMK A01 T03300186  RH  042%=      5-min Rain = 0
KCO2 252214Z 17010KT 33/18 A2996 RMK A01 T03300180  RH  041%=      5-min Rain = 0
KCO2 252215Z 15008KT 33/18 A2996 RMK A01 T03270177  RH  041%=      5-min Rain = 0
KCO2 252216Z 16011KT 33/18 A2996 RMK A01 T03260182  RH  042%=      5-min Rain = 0
KCO2 252217Z 15010KT 33/18 A2996 RMK A01 T03270179  RH  042%=      5-min Rain = 0
KCO2 252218Z 16008KT 33/18 A2996 RMK A01 T03270181  RH  042%=      5-min Rain = 0
KCO2 252219Z 14013KT 33/18 A2996 RMK A01 T03270181  RH  042%=      5-min Rain = 0
KCO2 252220Z 14011KT 33/18 A2996 RMK A01 T03270182  RH  042%=      5-min Rain = 0
KCO2 252221Z 15010KT 33/18 A2996 RMK A01 T03280181  RH  042%=      5-min Rain = 0
KCO2 252222Z 16014KT 33/18 A2996 RMK A01 T03270179  RH  041%=      5-min Rain = 0
KCO2 252223Z 15013KT 33/18 A2996 RMK A01 T03270178  RH  041%=      5-min Rain = 0
KCO2 252224Z 16013KT 33/18 A2996 RMK A01 T03270179  RH  041%=      5-min Rain = 0
KCO2 252225Z 15010KT 33/18 A2996 RMK A01 T03280176  RH  040%=      5-min Rain = 0
KCO2 252226Z 17011KT 33/18 A2996 RMK A01 T03270178  RH  041%=      5-min Rain = 0
KCO2 252227Z 16014KT 33/18 A2996 RMK A01 T03270175  RH  040%=      5-min Rain = 0
KCO2 252228Z 17013KT 33/17 A2996 RMK A01 T03260173  RH  040%=      5-min Rain = 0
KCO2 252229Z 17010KT 33/17 A2996 RMK A01 T03250173  RH  040%=      5-min Rain = 0
KCO2 252230Z 16010KT 33/18 A2996 RMK A01 T03250176  RH  041%=      5-min Rain = 0
KCO2 252231Z 16012KT 33/18 A2996 RMK A01 T03260177  RH  041%=      5-min Rain = 0
KCO2 252232Z 15011KT 33/18 A2996 RMK A01 T03270177  RH  041%=      5-min Rain = 0
KCO2 252233Z 14011KT 33/18 A2996 RMK A01 T03270176  RH  041%=      5-min Rain = 0
KCO2 252234Z 15012KT 33/18 A2996 RMK A01 T03260177  RH  041%=      5-min Rain = 0
KCO2 252235Z 15011KT 33/18 A2995 RMK A01 T03260176  RH  041%=      5-min Rain = 0
KCO2 252236Z 16011KT 33/18 A2995 RMK A01 T03260176  RH  041%=      5-min Rain = 0
KCO2 252237Z 16012KT 33/18 A2995 RMK A01 T03250176  RH  041%=      5-min Rain = 0
KCO2 252238Z 17013KT 33/18 A2995 RMK A01 T03260175  RH  041%=      5-min Rain = 0
KCO2 252239Z 16012KT 33/17 A2995 RMK A01 T03260172  RH  040%=      5-min Rain = 0
KCO2 252240Z 17011KT 33/17 A2995 RMK A01 T03260174  RH  040%=      5-min Rain = 0
KCO2 252241Z 17013KT 33/17 A2995 RMK A01 T03260173  RH  040%=      5-min Rain = 0
KCO2 252242Z 17015KT 33/17 A2995 RMK A01 T03260170  RH  039%=      5-min Rain = 0
KCO2 252243Z 16010KT 33/17 A2995 RMK A01 T03250169  RH  039%=      5-min Rain = 0
KCO2 252244Z 17010KT 33/17 A2995 RMK A01 T03250174  RH  041%=      5-min Rain = 0
KCO2 252245Z 16013G19KT 33/18 A2995 RMK A01 T03270176  RH  041%=      5-min Rain = 0
KCO2 252246Z 16015G20KT 33/18 A2995 RMK A01 T03280177  RH  041%=      5-min Rain = 0
KCO2 252247Z 17015KT 33/18 A2995 RMK A01 T03270180  RH  042%=      5-min Rain = 0
KCO2 252248Z 16011KT 33/18 A2995 RMK A01 T03260178  RH  041%=      5-min Rain = 0
KCO2 252249Z 16011KT 33/18 A2995 RMK A01 T03260181  RH  042%=      5-min Rain = 0
KCO2 252250Z 15011KT 33/18 A2995 RMK A01 T03260179  RH  042%=      5-min Rain = 0
KCO2 252251Z 17009KT 33/18 A2995 RMK A01 T03260180  RH  042%=      5-min Rain = 0
KCO2 252252Z 17010KT 33/18 A2995 RMK A01 T03260178  RH  041%=      5-min Rain = 0
KCO2 252253Z 16013KT 33/18 A2995 RMK A01 T03260180  RH  042%=      5-min Rain = 0
KCO2 252254Z 15013KT 33/18 A2995 RMK A01 T03270179  RH  041%=      5-min Rain = 0
KCO2 252255Z 15013KT 33/18 A2995 RMK A01 T03270179  RH  042%=      5-min Rain = 0
KCO2 252256Z 15013KT 33/18 A2995 RMK A01 T03270177  RH  041%=      5-min Rain = 0
KCO2 252257Z 14013KT 33/17 A2995 RMK A01 T03250174  RH  041%=      5-min Rain = 0
KCO2 252258Z 14012KT 32/17 A2995 RMK A01 T03240174  RH  041%=      5-min Rain = 0
KCO2 252259Z 15012KT 32/18 A2995 RMK A01 T03240176  RH  041%=      5-min Rain = 0
KCO2 252300Z 16016KT 32/18 A2995 RMK A01 T03240176  RH  041%=      5-min Rain = 0
KCO2 252301Z 16013KT 33/17 A2995 RMK A01 T03250174  RH  041%=      5-min Rain = 0
KCO2 252302Z 16013KT 32/17 A2995 RMK A01 T03240171  RH  040%=      5-min Rain = 0
KCO2 252303Z 16010KT 32/17 A2995 RMK A01 T03230173  RH  041%=      5-min Rain = 0
KCO2 252304Z 17013KT 32/18 A2995 RMK A01 T03230176  RH  042%=      5-min Rain = 0
KCO2 252305Z 16015KT 32/18 A2995 RMK A01 T03230175  RH  041%=      5-min Rain = 0
KCO2 252306Z 16013KT 32/18 A2995 RMK A01 T03230176  RH  041%=      5-min Rain = 0
KCO2 252307Z 17014KT 32/18 A2995 RMK A01 T03230176  RH  042%=      5-min Rain = 0
KCO2 252308Z 16013KT 32/18 A2995 RMK A01 T03220178  RH  042%=      5-min Rain = 0
KCO2 252309Z 15013KT 32/18 A2995 RMK A01 T03220179  RH  043%=      5-min Rain = 0
KCO2 252310Z 15014KT 32/18 A2995 RMK A01 T03230178  RH  042%=      5-min Rain = 0
KCO2 252311Z 16014KT 32/18 A2995 RMK A01 T03220177  RH  042%=      5-min Rain = 0
KCO2 252312Z 16011KT 32/18 A2995 RMK A01 T03220180  RH  043%=      5-min Rain = 0
KCO2 252313Z 16011KT 32/18 A2995 RMK A01 T03230182  RH  043%=      5-min Rain = 0
KCO2 252314Z 15014KT 33/18 A2995 RMK A01 T03250179  RH  042%=      5-min Rain = 0
KCO2 252315Z 16011KT 32/18 A2995 RMK A01 T03240177  RH  042%=      5-min Rain = 0
KCO2 252316Z 16013KT 32/18 A2995 RMK A01 T03230176  RH  042%=      5-min Rain = 0
KCO2 252317Z 17014KT 32/18 A2995 RMK A01 T03220175  RH  041%=      5-min Rain = 0
KCO2 252318Z 17018KT 32/17 A2995 RMK A01 T03220170  RH  040%=      5-min Rain = 0
KCO2 252319Z 15013KT 32/17 A2995 RMK A01 T03210171  RH  041%=      5-min Rain = 0
KCO2 252320Z 15013KT 32/17 A2995 RMK A01 T03210170  RH  040%=      5-min Rain = 0
KCO2 252321Z 15016KT 32/17 A2995 RMK A01 T03210168  RH  040%=      5-min Rain = 0
KCO2 252322Z 15013KT 32/17 A2995 RMK A01 T03210166  RH  039%=      5-min Rain = 0
KCO2 252323Z 16014G19KT 32/17 A2995 RMK A01 T03210168  RH  040%=      5-min Rain = 0
KCO2 252324Z 17015KT 32/17 A2995 RMK A01 T03200172  RH  041%=      5-min Rain = 0
KCO2 252325Z 16012KT 32/17 A2995 RMK A01 T03200173  RH  042%=      5-min Rain = 0
KCO2 252326Z 16014G19KT 32/18 A2995 RMK A01 T03200175  RH  042%=      5-min Rain = 0
KCO2 252327Z 16014G19KT 32/17 A2995 RMK A01 T03200173  RH  041%=      5-min Rain = 0
KCO2 252328Z 16016KT 32/17 A2995 RMK A01 T03200170  RH  041%=      5-min Rain = 0
KCO2 252329Z 15015KT 32/17 A2995 RMK A01 T03190172  RH  041%=      5-min Rain = 0
KCO2 252330Z 15014KT 32/17 A2995 RMK A01 T03190172  RH  041%=      5-min Rain = 0
KCO2 252331Z 16011KT 32/17 A2994 RMK A01 T03180174  RH  042%=      5-min Rain = 0
KCO2 252332Z 16013KT 32/18 A2994 RMK A01 T03190175  RH  042%=      5-min Rain = 0
KCO2 252333Z 16015KT 32/18 A2994 RMK A01 T03200177  RH  043%=      5-min Rain = 0
KCO2 252334Z 16016KT 32/18 A2994 RMK A01 T03200178  RH  043%=      5-min Rain = 0
KCO2 252335Z 16014KT 32/18 A2994 RMK A01 T03190179  RH  043%=      5-min Rain = 0
KCO2 252336Z 16012KT 32/18 A2994 RMK A01 T03190180  RH  044%=      5-min Rain = 0
KCO2 252337Z 15015G21KT 32/18 A2994 RMK A01 T03190181  RH  044%=      5-min Rain = 0
KCO2 252338Z 16018KT 32/18 A2994 RMK A01 T03190181  RH  044%=      5-min Rain = 0
KCO2 252339Z 16016KT 32/18 A2994 RMK A01 T03180178  RH  043%=      5-min Rain = 0
KCO2 252340Z 16016KT 32/18 A2994 RMK A01 T03180177  RH  043%=      5-min Rain = 0
KCO2 252341Z 16014KT 32/18 A2994 RMK A01 T03170177  RH  043%=      5-min Rain = 0
KCO2 252342Z 16016KT 32/18 A2994 RMK A01 T03170177  RH  043%=      5-min Rain = 0
KCO2 252343Z 16013KT 32/18 A2994 RMK A01 T03170177  RH  043%=      5-min Rain = 0
KCO2 252344Z 14016KT 32/18 A2994 RMK A01 T03160178  RH  044%=      5-min Rain = 0
KCO2 252345Z 15015KT 32/18 A2994 RMK A01 T03150176  RH  043%=      5-min Rain = 0
KCO2 252346Z 16012KT 32/18 A2994 RMK A01 T03150178  RH  044%=      5-min Rain = 0
KCO2 252347Z 15014KT 32/18 A2994 RMK A01 T03150175  RH  043%=      5-min Rain = 0
KCO2 252348Z 16016KT 32/17 A2994 RMK A01 T03160173  RH  042%=      5-min Rain = 0
KCO2 252349Z 16015KT 32/17 A2994 RMK A01 T03160172  RH  042%=      5-min Rain = 0
KCO2 252350Z 16015G20KT 32/18 A2994 RMK A01 T03160175  RH  043%=      5-min Rain = 0
KCO2 252351Z 16014G19KT 32/18 A2994 RMK A01 T03150178  RH  044%=      5-min Rain = 0
KCO2 252352Z 16016KT 32/18 A2994 RMK A01 T03150179  RH  044%=      5-min Rain = 0
KCO2 252353Z 16018KT 31/18 A2994 RMK A01 T03140177  RH  044%=      5-min Rain = 0
KCO2 252354Z 15015KT 31/18 A2994 RMK A01 T03140177  RH  044%=      5-min Rain = 0
KCO2 252355Z 16013G18KT 31/18 A2994 RMK A01 T03140178  RH  044%=      5-min Rain = 0
KCO2 252356Z 17014KT 31/18 A2994 RMK A01 T03140177  RH  044%=      5-min Rain = 0
KCO2 252357Z 17013KT 31/18 A2994 RMK A01 T03140177  RH  044%=      5-min Rain = 0
KCO2 252358Z 17014KT 31/17 A2994 RMK A01 T03140173  RH  043%=      5-min Rain = 0
KCO2 252359Z 16015KT 31/18 A2994 RMK A01 T03140177  RH  044%=      5-min Rain = 0
KCO2 260000Z 16013KT 31/18 A2994 RMK A01 T03140180  RH  045%=      5-min Rain = 0
KCO2 260001Z 16011KT 31/18 A2994 RMK A01 T03140180  RH  045%=      5-min Rain = 0
KCO2 260002Z 16010G15KT 31/18 A2994 RMK A01 T03140183  RH  046%=      5-min Rain = 0
KCO2 260003Z 16013G18KT 32/18 A2994 RMK A01 T03150180  RH  045%=      5-min Rain = 0
KCO2 260004Z 16014KT 31/18 A2994 RMK A01 T03140181  RH  045%=      5-min Rain = 0
KCO2 260005Z 15015KT 31/18 A2994 RMK A01 T03140179  RH  045%=      5-min Rain = 0
KCO2 260006Z 16012KT 31/18 A2994 RMK A01 T03130178  RH  044%=      5-min Rain = 0
KCO2 260007Z 16012KT 31/18 A2994 RMK A01 T03130179  RH  045%=      5-min Rain = 0
KCO2 260008Z 15010KT 31/18 A2994 RMK A01 T03130180  RH  045%=      5-min Rain = 0
KCO2 260009Z 15012KT 31/18 A2994 RMK A01 T03140177  RH  044%=      5-min Rain = 0
KCO2 260010Z 15011KT 31/18 A2994 RMK A01 T03140177  RH  044%=      5-min Rain = 0
KCO2 260011Z 15013KT 31/18 A2994 RMK A01 T03140177  RH  044%=      5-min Rain = 0
KCO2 260012Z 15015KT 31/18 A2994 RMK A01 T03130180  RH  045%=      5-min Rain = 0
KCO2 260013Z 16016KT 31/19 A2994 RMK A01 T03130185  RH  047%=      5-min Rain = 0
KCO2 260014Z 15015KT 31/19 A2994 RMK A01 T03120186  RH  047%=      5-min Rain = 0
KCO2 260015Z 16015KT 31/19 A2994 RMK A01 T03110186  RH  047%=      5-min Rain = 0
KCO2 260016Z 15015KT 31/19 A2994 RMK A01 T03110188  RH  048%=      5-min Rain = 0
KCO2 260017Z 15012KT 31/19 A2994 RMK A01 T03110189  RH  048%=      5-min Rain = 0
KCO2 260018Z 16012KT 31/19 A2994 RMK A01 T03110190  RH  049%=      5-min Rain = 0
KCO2 260019Z 16013KT 31/19 A2994 RMK A01 T03100187  RH  048%=      5-min Rain = 0
KCO2 260020Z 15015KT 31/18 A2994 RMK A01 T03110184  RH  047%=      5-min Rain = 0
KCO2 260021Z 15016KT 31/18 A2994 RMK A01 T03100179  RH  045%=      5-min Rain = 0
KCO2 260022Z 15015KT 31/18 A2994 RMK A01 T03100179  RH  045%=      5-min Rain = 0
KCO2 260023Z 16015KT 31/18 A2994 RMK A01 T03100179  RH  045%=      5-min Rain = 0
KCO2 260024Z 16015KT 31/18 A2994 RMK A01 T03100176  RH  045%=      5-min Rain = 0
KCO2 260025Z 17017G22KT 31/18 A2994 RMK A01 T03090175  RH  045%=      5-min Rain = 0
KCO2 260026Z 16014G19KT 31/18 A2994 RMK A01 T03090175  RH  045%=      5-min Rain = 0
KCO2 260027Z 16016G21KT 31/17 A2994 RMK A01 T03090174  RH  044%=      5-min Rain = 0
KCO2 260028Z 17020KT 31/17 A2994 RMK A01 T03080172  RH  044%=      5-min Rain = 0
KCO2 260029Z 17017KT 31/17 A2994 RMK A01 T03080174  RH  045%=      5-min Rain = 0
KCO2 260030Z 16015KT 31/18 A2994 RMK A01 T03080178  RH  046%=      5-min Rain = 0
KCO2 260031Z 16013G18KT 31/18 A2994 RMK A01 T03070178  RH  046%=      5-min Rain = 0
KCO2 260032Z 16014KT 31/18 A2994 RMK A01 T03070178  RH  046%=      5-min Rain = 0
KCO2 260033Z 15014KT 31/18 A2994 RMK A01 T03070179  RH  046%=      5-min Rain = 0
KCO2 260034Z 16016KT 31/18 A2994 RMK A01 T03070177  RH  046%=      5-min Rain = 0
KCO2 260035Z 16016KT 31/18 A2994 RMK A01 T03070177  RH  046%=      5-min Rain = 0
KCO2 260036Z 16015KT 31/18 A2994 RMK A01 T03070175  RH  045%=      5-min Rain = 0
KCO2 260037Z 16016G22KT 31/18 A2994 RMK A01 T03060176  RH  046%=      5-min Rain = 0
KCO2 260038Z 15014KT 31/18 A2994 RMK A01 T03060178  RH  046%=      5-min Rain = 0
KCO2 260039Z 16017KT 31/18 A2994 RMK A01 T03060179  RH  047%=      5-min Rain = 0
KCO2 260040Z 15017KT 31/18 A2994 RMK A01 T03060180  RH  047%=      5-min Rain = 0
KCO2 260041Z 16014KT 31/18 A2994 RMK A01 T03050182  RH  048%=      5-min Rain = 0
KCO2 260042Z 16015G20KT 31/18 A2994 RMK A01 T03050183  RH  048%=      5-min Rain = 0
KCO2 260043Z 16016KT 31/18 A2994 RMK A01 T03050180  RH  047%=      5-min Rain = 0
KCO2 260044Z 16013KT 30/18 A2994 RMK A01 T03040180  RH  047%=      5-min Rain = 0
KCO2 260045Z 16013KT 31/18 A2994 RMK A01 T03050180  RH  047%=      5-min Rain = 0
KCO2 260046Z 16010KT 30/18 A2994 RMK A01 T03040180  RH  047%=      5-min Rain = 0
KCO2 260047Z 16014KT 30/18 A2995 RMK A01 T03040181  RH  048%=      5-min Rain = 0
KCO2 260048Z 16014G19KT 30/18 A2995 RMK A01 T03040180  RH  048%=      5-min Rain = 0
KCO2 260049Z 15015KT 30/18 A2995 RMK A01 T03030180  RH  048%=      5-min Rain = 0
KCO2 260050Z 16016KT 30/18 A2995 RMK A01 T03040179  RH  047%=      5-min Rain = 0
KCO2 260051Z 16013G18KT 30/18 A2995 RMK A01 T03030179  RH  047%=      5-min Rain = 0
KCO2 260052Z 16015KT 30/18 A2995 RMK A01 T03030179  RH  047%=      5-min Rain = 0
KCO2 260053Z 16013KT 30/18 A2995 RMK A01 T03030179  RH  047%=      5-min Rain = 0
KCO2 260054Z 17015KT 30/18 A2995 RMK A01 T03030179  RH  048%=      5-min Rain = 0
KCO2 260055Z 16014KT 30/18 A2995 RMK A01 T03030178  RH  047%=      5-min Rain = 0
KCO2 260056Z 16015KT 30/18 A2995 RMK A01 T03020178  RH  047%=      5-min Rain = 0
KCO2 260057Z 15015KT 30/18 A2995 RMK A01 T03020178  RH  048%=      5-min Rain = 0
KCO2 260058Z 15014KT 30/18 A2995 RMK A01 T03010178  RH  048%=      5-min Rain = 0
KCO2 260059Z 16016KT 30/18 A2995 RMK A01 T03010177  RH  047%=      5-min Rain = 0
KCO2 260100Z 15018KT 30/18 A2995 RMK A01 T03010175  RH  047%=      5-min Rain = 0
KCO2 260101Z 16014KT 30/18 A2995 RMK A01 T03010176  RH  047%=      5-min Rain = 0
KCO2 260102Z 16014KT 30/18 A2995 RMK A01 T03010177  RH  047%=      5-min Rain = 0
KCO2 260103Z 16014G19KT 30/18 A2995 RMK A01 T03010178  RH  048%=      5-min Rain = 0
KCO2 260104Z 16013KT 30/18 A2995 RMK A01 T03000178  RH  048%=      5-min Rain = 0
KCO2 260105Z 16012KT 30/18 A2995 RMK A01 T03000180  RH  049%=      5-min Rain = 0
KCO2 260106Z 15015KT 30/18 A2995 RMK A01 T03000181  RH  049%=      5-min Rain = 0
KCO2 260107Z 16017KT 30/18 A2995 RMK A01 T02990182  RH  049%=      5-min Rain = 0
KCO2 260108Z 16015KT 30/18 A2995 RMK A01 T02990182  RH  050%=      5-min Rain = 0
KCO2 260109Z 16015KT 30/18 A2995 RMK A01 T02990183  RH  050%=      5-min Rain = 0
KCO2 260110Z 15016KT 30/18 A2995 RMK A01 T02990183  RH  050%=      5-min Rain = 0
KCO2 260111Z 16013G18KT 30/18 A2995 RMK A01 T02990181  RH  049%=      5-min Rain = 0
KCO2 260112Z 15014G19KT 30/18 A2995 RMK A01 T02980182  RH  050%=      5-min Rain = 0
KCO2 260113Z 16014KT 30/18 A2995 RMK A01 T02980182  RH  050%=      5-min Rain = 0
KCO2 260114Z 16016KT 30/18 A2995 RMK A01 T02970182  RH  050%=      5-min Rain = 0
KCO2 260115Z 16015KT 30/18 A2996 RMK A01 T02970181  RH  050%=      5-min Rain = 0
KCO2 260116Z 15016KT 30/18 A2996 RMK A01 T02970181  RH  050%=      5-min Rain = 0
KCO2 260117Z 15015G21KT 30/18 A2996 RMK A01 T02970182  RH  050%=      5-min Rain = 0
KCO2 260118Z 16015KT 30/18 A2996 RMK A01 T02970181  RH  050%=      5-min Rain = 0
KCO2 260119Z 15014KT 30/18 A2996 RMK A01 T02970180  RH  050%=      5-min Rain = 0
KCO2 260120Z 16016G21KT 30/18 A2996 RMK A01 T02960181  RH  050%=      5-min Rain = 0
KCO2 260121Z 16016KT 30/18 A2996 RMK A01 T02960180  RH  050%=      5-min Rain = 0
KCO2 260122Z 16015KT 30/18 A2996 RMK A01 T02960181  RH  050%=      5-min Rain = 0
KCO2 260123Z 15016KT 30/18 A2996 RMK A01 T02960181  RH  050%=      5-min Rain = 0
KCO2 260124Z 15012KT 30/18 A2996 RMK A01 T02960182  RH  051%=      5-min Rain = 0
KCO2 260125Z 15013KT 30/18 A2996 RMK A01 T02950182  RH  051%=      5-min Rain = 0
KCO2 260126Z 15011KT 30/18 A2996 RMK A01 T02950183  RH  051%=      5-min Rain = 0
KCO2 260127Z 15012KT 29/19 A2996 RMK A01 T02940185  RH  052%=      5-min Rain = 0
KCO2 260128Z 15013KT 29/19 A2996 RMK A01 T02930185  RH  052%=      5-min Rain = 0
KCO2 260129Z 15012KT 29/19 A2996 RMK A01 T02920185  RH  052%=      5-min Rain = 0
KCO2 260130Z 15012KT 29/19 A2997 RMK A01 T02920185  RH  052%=      5-min Rain = 0
KCO2 260131Z 15012KT 29/19 A2997 RMK A01 T02920185  RH  052%=      5-min Rain = 0
KCO2 260132Z 15010G15KT 29/19 A2997 RMK A01 T02920185  RH  052%=      5-min Rain = 0
KCO2 260133Z 15012KT 29/19 A2997 RMK A01 T02910185  RH  053%=      5-min Rain = 0
KCO2 260134Z 15012KT 29/18 A2997 RMK A01 T02910184  RH  052%=      5-min Rain = 0
KCO2 260135Z 15014KT 29/18 A2997 RMK A01 T02910184  RH  053%=      5-min Rain = 0
KCO2 260136Z 15012KT 29/19 A2997 RMK A01 T02910185  RH  053%=      5-min Rain = 0
KCO2 260137Z 15011KT 29/19 A2997 RMK A01 T02910185  RH  053%=      5-min Rain = 0
KCO2 260138Z 15009KT 29/19 A2997 RMK A01 T02900186  RH  053%=      5-min Rain = 0
KCO2 260139Z 15013KT 29/19 A2997 RMK A01 T02890186  RH  054%=      5-min Rain = 0
KCO2 260140Z 15014KT 29/19 A2997 RMK A01 T02890186  RH  054%=      5-min Rain = 0
KCO2 260141Z 14012KT 29/19 A2997 RMK A01 T02890186  RH  054%=      5-min Rain = 0
KCO2 260142Z 15012KT 29/19 A2997 RMK A01 T02890187  RH  054%=      5-min Rain = 0
KCO2 260143Z 15014KT 29/19 A2997 RMK A01 T02890187  RH  054%=      5-min Rain = 0
KCO2 260144Z 15013KT 29/19 A2997 RMK A01 T02890187  RH  054%=      5-min Rain = 0
KCO2 260145Z 15011KT 29/19 A2997 RMK A01 T02880187  RH  054%=      5-min Rain = 0
KCO2 260146Z 15009KT 29/19 A2997 RMK A01 T02880187  RH  054%=      5-min Rain = 0
KCO2 260147Z 15012KT 29/19 A2997 RMK A01 T02880187  RH  055%=      5-min Rain = 0
KCO2 260148Z 15013KT 29/19 A2997 RMK A01 T02870187  RH  055%=      5-min Rain = 0
KCO2 260149Z 15009KT 29/19 A2997 RMK A01 T02870187  RH  055%=      5-min Rain = 0
KCO2 260150Z 15011KT 29/19 A2997 RMK A01 T02870187  RH  055%=      5-min Rain = 0
KCO2 260151Z 15012KT 29/19 A2998 RMK A01 T02860186  RH  055%=      5-min Rain = 0
KCO2 260152Z 15013KT 29/19 A2998 RMK A01 T02860186  RH  055%=      5-min Rain = 0
KCO2 260153Z 15010KT 29/19 A2998 RMK A01 T02860185  RH  055%=      5-min Rain = 0
KCO2 260154Z 15009KT 29/19 A2998 RMK A01 T02860186  RH  055%=      5-min Rain = 0
KCO2 260155Z 15010KT 29/19 A2998 RMK A01 T02860186  RH  055%=      5-min Rain = 0
KCO2 260156Z 15011KT 29/19 A2998 RMK A01 T02850186  RH  055%=      5-min Rain = 0
KCO2 260157Z 15011KT 29/19 A2998 RMK A01 T02850186  RH  055%=      5-min Rain = 0
KCO2 260158Z 15011KT 29/19 A2998 RMK A01 T02850186  RH  055%=      5-min Rain = 0
KCO2 260159Z 15011KT 29/19 A2998 RMK A01 T02850185  RH  055%=      5-min Rain = 0
KCO2 260200Z 15008KT 29/19 A2998 RMK A01 T02850185  RH  055%=      5-min Rain = 0
KCO2 260201Z 15010KT 28/19 A2998 RMK A01 T02840186  RH  055%=      5-min Rain = 0
KCO2 260202Z 15010KT 28/19 A2998 RMK A01 T02830185  RH  055%=      5-min Rain = 0
KCO2 260203Z 14009KT 28/19 A2998 RMK A01 T02830186  RH  055%=      5-min Rain = 0
KCO2 260204Z 14009KT 28/19 A2998 RMK A01 T02820185  RH  056%=      5-min Rain = 0
KCO2 260205Z 15010KT 28/19 A2998 RMK A01 T02810185  RH  056%=      5-min Rain = 0
KCO2 260206Z 14009KT 28/19 A2998 RMK A01 T02810185  RH  056%=      5-min Rain = 0
KCO2 260207Z 14010KT 28/19 A2998 RMK A01 T02810185  RH  056%=      5-min Rain = 0
KCO2 260208Z 15009KT 28/19 A2998 RMK A01 T02810186  RH  056%=      5-min Rain = 0
KCO2 260209Z 14008KT 28/19 A2998 RMK A01 T02800185  RH  056%=      5-min Rain = 0
KCO2 260210Z 15008KT 28/19 A2998 RMK A01 T02790186  RH  057%=      5-min Rain = 0
KCO2 260211Z 14008KT 28/19 A2998 RMK A01 T02790186  RH  057%=      5-min Rain = 0
KCO2 260212Z 14008KT 28/19 A2998 RMK A01 T02780186  RH  057%=      5-min Rain = 0
KCO2 260213Z 14008KT 28/19 A2998 RMK A01 T02780186  RH  057%=      5-min Rain = 0
KCO2 260214Z 14009KT 28/19 A2999 RMK A01 T02770186  RH  057%=      5-min Rain = 0
KCO2 260215Z 14008KT 28/19 A2999 RMK A01 T02770186  RH  058%=      5-min Rain = 0
KCO2 260216Z 14009KT 28/19 A2999 RMK A01 T02760186  RH  058%=      5-min Rain = 0
KCO2 260217Z 14008KT 28/19 A2999 RMK A01 T02760186  RH  058%=      5-min Rain = 0
KCO2 260218Z 14009KT 28/19 A2999 RMK A01 T02760185  RH  058%=      5-min Rain = 0
KCO2 260219Z 14009KT 28/19 A2999 RMK A01 T02760185  RH  058%=      5-min Rain = 0
KCO2 260220Z 14009KT 28/19 A2999 RMK A01 T02760185  RH  058%=      5-min Rain = 0
KCO2 260221Z 14009KT 28/19 A2999 RMK A01 T02760185  RH  058%=      5-min Rain = 0
KCO2 260222Z 14009KT 28/19 A2999 RMK A01 T02750185  RH  058%=      5-min Rain = 0
KCO2 260223Z 14009KT 28/19 A2999 RMK A01 T02750185  RH  058%=      5-min Rain = 0
KCO2 260224Z 13008KT 28/19 A2999 RMK A01 T02750185  RH  058%=      5-min Rain = 0
KCO2 260225Z 14008KT 28/19 A2999 RMK A01 T02750185  RH  058%=      5-min Rain = 0
KCO2 260226Z 13008KT 28/19 A2999 RMK A01 T02750185  RH  058%=      5-min Rain = 0
KCO2 260227Z 13008KT 28/19 A2999 RMK A01 T02750185  RH  058%=      5-min Rain = 0
KCO2 260228Z 14008KT 27/19 A2999 RMK A01 T02740185  RH  058%=      5-min Rain = 0
KCO2 260229Z 13008KT 27/19 A2999 RMK A01 T02740185  RH  058%=      5-min Rain = 0
KCO2 260230Z 13008KT 27/19 A2999 RMK A01 T02730185  RH  058%=      5-min Rain = 0
KCO2 260231Z 13008KT 27/18 A2999 RMK A01 T02730184  RH  058%=      5-min Rain = 0
KCO2 260232Z 13007KT 27/19 A2999 RMK A01 T02720185  RH  059%=      5-min Rain = 0
KCO2 260233Z 12007KT 27/18 A30 RMK A01 T02710184  RH  059%=      5-min Rain = 0
KCO2 260234Z 12008KT 27/18 A30 RMK A01 T02700184  RH  059%=      5-min Rain = 0
KCO2 260235Z 13010KT 27/18 A30 RMK A01 T02700184  RH  059%=      5-min Rain = 0
KCO2 260236Z 13009KT 27/18 A30 RMK A01 T02710184  RH  059%=      5-min Rain = 0
KCO2 260237Z 13008KT 27/19 A30 RMK A01 T02710185  RH  059%=      5-min Rain = 0
KCO2 260238Z 13008KT 27/19 A30 RMK A01 T02710185  RH  059%=      5-min Rain = 0
KCO2 260239Z 13008KT 27/19 A30 RMK A01 T02700185  RH  060%=      5-min Rain = 0
KCO2 260240Z 13007KT 27/19 A30 RMK A01 T02690185  RH  060%=      5-min Rain = 0
KCO2 260241Z 12007KT 27/19 A30 RMK A01 T02680185  RH  060%=      5-min Rain = 0
KCO2 260242Z 12007KT 27/19 A30 RMK A01 T02680186  RH  061%=      5-min Rain = 0
KCO2 260243Z 12006KT 27/19 A30 RMK A01 T02660185  RH  061%=      5-min Rain = 0
KCO2 260244Z 12007KT 27/19 A30 RMK A01 T02660186  RH  061%=      5-min Rain = 0
KCO2 260245Z 12007KT 27/19 A30 RMK A01 T02650185  RH  062%=      5-min Rain = 0
KCO2 260246Z 12008KT 26/19 A30 RMK A01 T02640186  RH  062%=      5-min Rain = 0
KCO2 260247Z 12008KT 26/19 A30 RMK A01 T02640186  RH  062%=      5-min Rain = 0
KCO2 260248Z 12008KT 26/19 A30 RMK A01 T02630185  RH  062%=      5-min Rain = 0
KCO2 260249Z 12009KT 26/19 A30 RMK A01 T02630185  RH  062%=      5-min Rain = 0
KCO2 260250Z 12008KT 26/19 A30 RMK A01 T02630185  RH  062%=      5-min Rain = 0
KCO2 260251Z 12009KT 26/19 A30 RMK A01 T02630185  RH  062%=      5-min Rain = 0
KCO2 260252Z 12009KT 26/19 A30 RMK A01 T02630185  RH  062%=      5-min Rain = 0
KCO2 260253Z 12008KT 26/19 A30 RMK A01 T02630185  RH  062%=      5-min Rain = 0
KCO2 260254Z 12009KT 26/19 A30 RMK A01 T02640185  RH  062%=      5-min Rain = 0
KCO2 260255Z 12008KT 26/19 A30 RMK A01 T02640185  RH  062%=      5-min Rain = 0
KCO2 260256Z 12010KT 26/19 A30 RMK A01 T02640185  RH  062%=      5-min Rain = 0
KCO2 260257Z 12010KT 26/19 A30 RMK A01 T02640185  RH  062%=      5-min Rain = 0
KCO2 260258Z 12010KT 27/19 A30 RMK A01 T02650185  RH  061%=      5-min Rain = 0
KCO2 260259Z 12009KT 27/18 A30 RMK A01 T02650184  RH  061%=      5-min Rain = 0
KCO2 260300Z 12009KT 27/18 A30 RMK A01 T02650184  RH  061%=      5-min Rain = 0
KCO2 260301Z 12010KT 27/18 A30 RMK A01 T02650184  RH  061%=      5-min Rain = 0
KCO2 260302Z 13008KT 26/18 A30 RMK A01 T02640184  RH  061%=      5-min Rain = 0
KCO2 260303Z 12008KT 27/18 A3001 RMK A01 T02650184  RH  061%=      5-min Rain = 0
KCO2 260304Z 12008KT 27/18 A3001 RMK A01 T02650184  RH  061%=      5-min Rain = 0
KCO2 260305Z 12009KT 26/18 A3001 RMK A01 T02640184  RH  061%=      5-min Rain = 0
KCO2 260306Z 12008KT 26/18 A3001 RMK A01 T02640184  RH  062%=      5-min Rain = 0
KCO2 260307Z 13009KT 26/18 A3001 RMK A01 T02630184  RH  062%=      5-min Rain = 0
KCO2 260308Z 13008KT 26/18 A3001 RMK A01 T02640184  RH  062%=      5-min Rain = 0
KCO2 260309Z 12008KT 26/18 A3001 RMK A01 T02630184  RH  062%=      5-min Rain = 0
KCO2 260310Z 13009KT 26/18 A3001 RMK A01 T02630184  RH  062%=      5-min Rain = 0
KCO2 260311Z 13009KT 26/18 A3001 RMK A01 T02620184  RH  062%=      5-min Rain = 0
KCO2 260312Z 13009KT 26/18 A3001 RMK A01 T02620184  RH  062%=      5-min Rain = 0
KCO2 260313Z 13009KT 26/18 A3001 RMK A01 T02620183  RH  062%=      5-min Rain = 0
KCO2 260314Z 13008KT 26/18 A3001 RMK A01 T02610184  RH  062%=      5-min Rain = 0
KCO2 260315Z 13007KT 26/18 A3001 RMK A01 T02610184  RH  062%=      5-min Rain = 0
KCO2 260316Z 13009KT 26/18 A3001 RMK A01 T02600183  RH  063%=      5-min Rain = 0
KCO2 260317Z 12008KT 26/18 A3001 RMK A01 T02600184  RH  063%=      5-min Rain = 0
KCO2 260318Z 13007KT 26/18 A3001 RMK A01 T02590183  RH  063%=      5-min Rain = 0
KCO2 260319Z 13009KT 26/18 A3001 RMK A01 T02580183  RH  063%=      5-min Rain = 0
KCO2 260320Z 13008KT 26/18 A3001 RMK A01 T02580183  RH  063%=      5-min Rain = 0
KCO2 260321Z 13009KT 26/18 A3002 RMK A01 T02580182  RH  063%=      5-min Rain = 0
KCO2 260322Z 12008KT 26/18 A3002 RMK A01 T02580182  RH  063%=      5-min Rain = 0
KCO2 260323Z 13010KT 26/18 A3002 RMK A01 T02580181  RH  063%=      5-min Rain = 0
KCO2 260324Z 13010KT 26/18 A3002 RMK A01 T02580181  RH  062%=      5-min Rain = 0
KCO2 260325Z 13009KT 26/18 A3002 RMK A01 T02590180  RH  062%=      5-min Rain = 0
KCO2 260326Z 12008KT 26/18 A3002 RMK A01 T02600180  RH  062%=      5-min Rain = 0
KCO2 260327Z 13008KT 26/18 A3002 RMK A01 T02600180  RH  062%=      5-min Rain = 0
KCO2 260328Z 12010KT 26/18 A3002 RMK A01 T02600180  RH  061%=      5-min Rain = 0
KCO2 260329Z 12008KT 26/18 A3003 RMK A01 T02590179  RH  061%=      5-min Rain = 0
KCO2 260330Z 12008KT 26/18 A3003 RMK A01 T02590179  RH  061%=      5-min Rain = 0
KCO2 260331Z 12008KT 26/18 A3003 RMK A01 T02590179  RH  061%=      5-min Rain = 0
KCO2 260332Z 12007KT 26/18 A3003 RMK A01 T02580179  RH  062%=      5-min Rain = 0
KCO2 260333Z 12008KT 26/18 A3003 RMK A01 T02570178  RH  062%=      5-min Rain = 0
KCO2 260334Z 12009KT 26/18 A3003 RMK A01 T02570178  RH  062%=      5-min Rain = 0
KCO2 260335Z 12009KT 26/18 A3003 RMK A01 T02570178  RH  062%=      5-min Rain = 0
KCO2 260336Z 12008KT 26/18 A3003 RMK A01 T02560177  RH  061%=      5-min Rain = 0
KCO2 260337Z 12008KT 26/18 A3003 RMK A01 T02560177  RH  061%=      5-min Rain = 0
KCO2 260338Z 12009KT 26/18 A3003 RMK A01 T02560176  RH  061%=      5-min Rain = 0
KCO2 260339Z 12009KT 26/18 A3003 RMK A01 T02560176  RH  061%=      5-min Rain = 0
KCO2 260340Z 12007KT 26/18 A3003 RMK A01 T02560176  RH  061%=      5-min Rain = 0
KCO2 260341Z 13007KT 26/18 A3003 RMK A01 T02560176  RH  061%=      5-min Rain = 0
KCO2 260342Z 13008KT 26/18 A3003 RMK A01 T02560176  RH  061%=      5-min Rain = 0
KCO2 260343Z 13009KT 26/18 A3003 RMK A01 T02550175  RH  061%=      5-min Rain = 0
KCO2 260344Z 13008KT 26/18 A3003 RMK A01 T02550176  RH  061%=      5-min Rain = 0
KCO2 260345Z 12007KT 26/18 A3003 RMK A01 T02550176  RH  061%=      5-min Rain = 0
KCO2 260346Z 13007KT 25/18 A3003 RMK A01 T02540176  RH  062%=      5-min Rain = 0
KCO2 260347Z 13008KT 25/18 A3004 RMK A01 T02530176  RH  062%=      5-min Rain = 0
KCO2 260348Z 13007KT 25/18 A3004 RMK A01 T02530175  RH  062%=      5-min Rain = 0
KCO2 260349Z 12006KT 25/18 A3004 RMK A01 T02530176  RH  062%=      5-min Rain = 0
KCO2 260350Z 12007KT 25/18 A3004 RMK A01 T02520175  RH  063%=      5-min Rain = 0
KCO2 260351Z 12007KT 25/18 A3004 RMK A01 T02520176  RH  063%=      5-min Rain = 0
KCO2 260352Z 12006KT 25/18 A3004 RMK A01 T02510175  RH  063%=      5-min Rain = 0
KCO2 260353Z 12005KT 25/18 A3004 RMK A01 T02510175  RH  063%=      5-min Rain = 0
KCO2 260354Z 12006KT 25/18 A3004 RMK A01 T02510175  RH  063%=      5-min Rain = 0
KCO2 260355Z 12006KT 25/18 A3005 RMK A01 T02500175  RH  063%=      5-min Rain = 0
KCO2 260356Z 11007KT 25/18 A3005 RMK A01 T02490175  RH  064%=      5-min Rain = 0
KCO2 260357Z 12006KT 25/18 A3005 RMK A01 T02490175  RH  064%=      5-min Rain = 0
KCO2 260358Z 12006KT 25/17 A3005 RMK A01 T02480174  RH  063%=      5-min Rain = 0
KCO2 260359Z 12006KT 25/17 A3005 RMK A01 T02490174  RH  063%=      5-min Rain = 0
KCO2 260400Z 12006KT 25/17 A3005 RMK A01 T02480174  RH  063%=      5-min Rain = 0
KCO2 260401Z 12005KT 25/17 A3005 RMK A01 T02480173  RH  063%=      5-min Rain = 0
KCO2 260402Z 11006KT 25/17 A3005 RMK A01 T02470173  RH  063%=      5-min Rain = 0
KCO2 260403Z 12006KT 25/17 A3005 RMK A01 T02470173  RH  063%=      5-min Rain = 0
KCO2 260404Z 12007KT 25/17 A3005 RMK A01 T02460172  RH  063%=      5-min Rain = 0
KCO2 260405Z 13006KT 25/17 A3005 RMK A01 T02460172  RH  063%=      5-min Rain = 0
KCO2 260406Z 13006KT 25/17 A3005 RMK A01 T02460172  RH  063%=      5-min Rain = 0
KCO2 260407Z 13006KT 25/17 A3005 RMK A01 T02460172  RH  063%=      5-min Rain = 0
KCO2 260408Z 13006KT 25/17 A3005 RMK A01 T02450171  RH  063%=      5-min Rain = 0
KCO2 260409Z 13006KT 25/17 A3005 RMK A01 T02450171  RH  063%=      5-min Rain = 0
KCO2 260410Z 13006KT 24/17 A3006 RMK A01 T02440171  RH  064%=      5-min Rain = 0
KCO2 260411Z 13005KT 24/17 A3006 RMK A01 T02440171  RH  064%=      5-min Rain = 0
KCO2 260412Z 13006KT 24/17 A3006 RMK A01 T02430171  RH  064%=      5-min Rain = 0
KCO2 260413Z 12006KT 24/17 A3006 RMK A01 T02420170  RH  064%=      5-min Rain = 0
KCO2 260414Z 13005KT 24/17 A3006 RMK A01 T02420170  RH  064%=      5-min Rain = 0
KCO2 260415Z 13005KT 24/17 A3006 RMK A01 T02410170  RH  065%=      5-min Rain = 0
KCO2 260416Z 12005KT 24/17 A3006 RMK A01 T02400170  RH  065%=      5-min Rain = 0
KCO2 260417Z 13006KT 24/17 A3006 RMK A01 T02400170  RH  065%=      5-min Rain = 0
KCO2 260418Z 13006KT 24/17 A3006 RMK A01 T02390169  RH  065%=      5-min Rain = 0
KCO2 260419Z 13006KT 24/17 A3006 RMK A01 T02390169  RH  065%=      5-min Rain = 0
KCO2 260420Z 13005KT 24/17 A3006 RMK A01 T02380169  RH  065%=      5-min Rain = 0
KCO2 260421Z 13006KT 24/17 A3006 RMK A01 T02380169  RH  065%=      5-min Rain = 0
KCO2 260422Z 12006KT 24/17 A3006 RMK A01 T02370169  RH  065%=      5-min Rain = 0
KCO2 260423Z 13006KT 24/17 A3006 RMK A01 T02370169  RH  065%=      5-min Rain = 0
KCO2 260424Z 13006KT 24/17 A3006 RMK A01 T02370169  RH  065%=      5-min Rain = 0
KCO2 260425Z 12006KT 24/17 A3005 RMK A01 T02370168  RH  065%=      5-min Rain = 0
KCO2 260426Z 12006KT 24/17 A3005 RMK A01 T02370168  RH  065%=      5-min Rain = 0
KCO2 260427Z 12006KT 24/17 A3005 RMK A01 T02370168  RH  065%=      5-min Rain = 0
KCO2 260428Z 13005KT 24/17 A3005 RMK A01 T02370168  RH  065%=      5-min Rain = 0
KCO2 260429Z 12006KT 24/17 A3005 RMK A01 T02370168  RH  065%=      5-min Rain = 0
KCO2 260430Z 12006KT 24/17 A3005 RMK A01 T02370168  RH  065%=      5-min Rain = 0
KCO2 260431Z 12006KT 24/17 A3005 RMK A01 T02370168  RH  065%=      5-min Rain = 0
KCO2 260432Z 12006KT 24/17 A3005 RMK A01 T02370168  RH  065%=      5-min Rain = 0
KCO2 260433Z 12006KT 24/17 A3005 RMK A01 T02370168  RH  065%=      5-min Rain = 0
KCO2 260434Z 12006KT 24/17 A3005 RMK A01 T02370168  RH  065%=      5-min Rain = 0
KCO2 260435Z 12005KT 24/17 A3005 RMK A01 T02370168  RH  065%=      5-min Rain = 0
KCO2 260436Z 12006KT 24/17 A3005 RMK A01 T02360168  RH  066%=      5-min Rain = 0
KCO2 260437Z 12006KT 24/17 A3005 RMK A01 T02360168  RH  066%=      5-min Rain = 0
KCO2 260438Z 12006KT 24/17 A3005 RMK A01 T02350168  RH  066%=      5-min Rain = 0
KCO2 260439Z 12005KT 24/17 A3005 RMK A01 T02350168  RH  066%=      5-min Rain = 0
KCO2 260440Z 12007KT 24/17 A3005 RMK A01 T02350168  RH  066%=      5-min Rain = 0
KCO2 260441Z 13006KT 24/17 A3005 RMK A01 T02350168  RH  066%=      5-min Rain = 0
KCO2 260442Z 13005KT 24/17 A3005 RMK A01 T02350168  RH  066%=      5-min Rain = 0
KCO2 260443Z 12005KT 24/17 A3005 RMK A01 T02350168  RH  066%=      5-min Rain = 0
KCO2 260444Z 13006KT 23/17 A3005 RMK A01 T02340168  RH  066%=      5-min Rain = 0
KCO2 260445Z 13006KT 23/17 A3005 RMK A01 T02340167  RH  066%=      5-min Rain = 0
KCO2 260446Z 13006KT 23/17 A3005 RMK A01 T02340167  RH  066%=      5-min Rain = 0
KCO2 260447Z 13006KT 23/17 A3005 RMK A01 T02340167  RH  066%=      5-min Rain = 0
KCO2 260448Z 13006KT 23/17 A3005 RMK A01 T02340167  RH  066%=      5-min Rain = 0
KCO2 260449Z 13006KT 23/17 A3005 RMK A01 T02340168  RH  066%=      5-min Rain = 0
KCO2 260450Z 13006KT 23/17 A3005 RMK A01 T02340168  RH  067%=      5-min Rain = 0
KCO2 260451Z 13006KT 23/17 A3005 RMK A01 T02340168  RH  067%=      5-min Rain = 0
KCO2 260452Z 13007KT 23/17 A3005 RMK A01 T02330168  RH  067%=      5-min Rain = 0
KCO2 260453Z 13006KT 23/17 A3005 RMK A01 T02330168  RH  067%=      5-min Rain = 0
KCO2 260454Z 13007KT 23/17 A3005 RMK A01 T02330168  RH  067%=      5-min Rain = 0
KCO2 260455Z 13006KT 23/17 A3005 RMK A01 T02340168  RH  067%=      5-min Rain = 0
KCO2 260456Z 13007KT 23/17 A3005 RMK A01 T02340168  RH  067%=      5-min Rain = 0
KCO2 260457Z 13007KT 23/17 A3005 RMK A01 T02340168  RH  067%=      5-min Rain = 0
KCO2 260458Z 13007KT 24/17 A3005 RMK A01 T02350168  RH  066%=      5-min Rain = 0
KCO2 260459Z 13006KT 24/17 A3005 RMK A01 T02360169  RH  066%=      5-min Rain = 0

Page generated in 0.0362 seconds.